AA4842 / N406YX 7700 Squawk Report (26th of April, 2021)

Aircraft E75S Reg No. N406YX Age N/A
Model Emb-175 Jet engines 2 First flight N/A
Registered 27-08-13 Rollout 07-13 Delivered 27-08-13
Construction No. 17000369 Line No. N/A Series 200LR
ADSHEX A4C527 Airline name Envoy Air Owner Republic Airways
Airfield based Indianapolis-International~IN~N First tracked N/A

Flight history for N406YX

Route Flight No Date Playback
Philadelphia Intl (PHL) - Lambert St Louis Intl (STL) AA4915 2021-05-15 14:42:00
Buffalo Niagara Intl (BUF) - Philadelphia Intl (PHL) AA4899 2021-05-15 11:44:00
Philadelphia Intl (PHL) - Buffalo Niagara Intl (BUF) AA4931 2021-05-15 10:28:00
Philadelphia Intl (PHL) - Raleigh Durham Intl (RDU) - Philadelphia Intl (PHL) AA4812 2021-05-14 23:20:00
Austin Bergstrom Intl (AUS) - Philadelphia Intl (PHL) AA4988 2021-05-14 16:59:00
Philadelphia Intl (PHL) - Austin Bergstrom Intl (AUS) AA5013 2021-05-14 13:42:00
Philadelphia Intl (PHL) - Bradley Intl (BDL) - Philadelphia Intl (PHL) AA4830 2021-05-13 23:11:00
Philadelphia Intl (PHL) - Port Columbus (CMH) - Philadelphia Intl (PHL) AA4888 2021-05-13 17:36:00
Ronald Reagan Washington Natl (DCA) - Port Columbus (CMH) AA4960 2021-05-13 15:25:00
Louisville International Airport (SDF) - Ronald Reagan Washington Natl (DCA) AA4917 2021-05-13 13:18:00
Ronald Reagan Washington Natl (DCA) - Louisville International Airport (SDF) AA4823 2021-05-13 11:48:00
Ronald Reagan Washington Natl (DCA) - Southwest Florida Intl (RSW) - Ronald Reagan Washington Natl (DCA) AA4904 2021-05-13 00:29:00
Port Columbus (CMH) - Ronald Reagan Washington Natl (DCA) AA4803 2021-05-12 17:55:00
Chicago Ohare Intl (ORD) - Port Columbus (CMH) AA4967 2021-05-12 16:00:00
Memphis Intl (MEM) - Chicago Ohare Intl (ORD) AA4664 2021-05-12 13:48:00
Chicago Ohare Intl (ORD) - Memphis Intl (MEM) AA4712 2021-05-12 01:58:00
Chicago Ohare Intl (ORD) - Hartsfield Jackson Atlanta Intl (ATL) - Chicago Ohare Intl (ORD) AA4753 2021-05-11 23:37:00
Lambert St Louis Intl (STL) - Chicago Ohare Intl (ORD) AA4680 2021-05-11 17:17:00
Philadelphia Intl (PHL) - Lambert St Louis Intl (STL) AA4915 2021-05-11 16:15:00
Cleveland Hopkins Intl (CLE) - Philadelphia Intl (PHL) AA4763 2021-05-11 11:17:00
Time Lat Lon Altitude Heading Speed Vertical Rate
2021-04-26 13:15:49 GMT 38.950249 -77.442627 0 273 17 0
2021-04-26 13:15:48 GMT 38.950260 -77.442963 0 273 17 0
2021-04-26 13:15:47 GMT 38.950260 -77.442863 0 273 17 0
2021-04-26 13:15:46 GMT 38.950249 -77.442657 0 273 17 0
2021-04-26 13:15:44 GMT 38.950249 -77.442558 0 274 18 0
2021-04-26 13:15:43 GMT 38.950249 -77.442482 0 276 19 0
2021-04-26 13:15:41 GMT 38.950211 -77.442238 0 268 18 0
2021-04-26 13:15:39 GMT 38.950218 -77.442032 0 271 19 0
2021-04-26 13:15:38 GMT 38.950218 -77.441910 0 269 18 0
2021-04-26 13:15:36 GMT 38.950230 -77.441689 0 271 17 0
2021-04-26 13:15:35 GMT 38.950230 -77.441589 0 272 17 0
2021-04-26 13:15:34 GMT 38.950218 -77.441490 0 272 17 0
2021-04-26 13:15:32 GMT 38.950199 -77.441261 0 265 15 0
2021-04-26 13:15:31 GMT 38.950199 -77.441177 0 265 16 0
2021-04-26 13:15:30 GMT 38.950218 -77.441093 0 269 16 0
2021-04-26 13:15:29 GMT 38.950241 -77.440918 0 274 18 0
2021-04-26 13:15:27 GMT 38.950218 -77.440811 0 270 17 0
2021-04-26 13:15:25 GMT 38.950199 -77.440582 0 269 15 0
2021-04-26 13:15:24 GMT 38.950199 -77.440483 0 268 14 0
2021-04-26 13:15:22 GMT 38.950211 -77.440308 0 275 16 0
2021-04-26 13:15:21 GMT 38.950211 -77.440208 0 277 14 0
2021-04-26 13:15:20 GMT 38.950211 -77.440048 0 281 14 0
2021-04-26 13:15:18 GMT 38.950169 -77.439980 0 272 15 0
2021-04-26 13:15:17 GMT 38.950180 -77.439888 0 277 15 0
2021-04-26 13:15:15 GMT 38.950150 -77.439720 0 268 16 0
2021-04-26 13:15:14 GMT 38.950150 -77.439621 0 268 14 0
2021-04-26 13:15:13 GMT 38.950161 -77.439522 0 274 14 0
2021-04-26 13:15:12 GMT 38.950169 -77.439369 0 275 15 0
2021-04-26 13:15:10 GMT 38.950142 -77.439201 0 273 14 0
2021-04-26 13:15:07 GMT 38.950130 -77.439034 0 288 13 0
2021-04-26 13:15:06 GMT 38.950119 -77.438950 0 297 13 0
2021-04-26 13:15:05 GMT 38.950130 -77.438919 0 306 16 0
2021-04-26 13:15:04 GMT 38.950031 -77.438721 0 330 11 0
2021-04-26 13:15:02 GMT 38.950001 -77.438667 0 336 13 0
2021-04-26 13:15:01 GMT 38.949959 -77.438622 0 346 13 0
2021-04-26 13:14:59 GMT 38.949848 -77.438583 0 347 14 0
2021-04-26 13:14:58 GMT 38.949799 -77.438560 0 352 16 0
2021-04-26 13:14:57 GMT 38.949730 -77.438522 0 0 16 0
2021-04-26 13:14:55 GMT 38.949558 -77.438507 0 13 12 0
2021-04-26 13:14:54 GMT 38.949501 -77.438553 0 4 11 0
2021-04-26 13:14:53 GMT 38.949471 -77.438530 0 4 13 0
2021-04-26 13:14:51 GMT 38.949371 -77.438591 0 355 15 0
2021-04-26 13:14:50 GMT 38.949299 -77.438568 0 356 15 0
2021-04-26 13:14:49 GMT 38.949230 -77.438583 0 354 16 0
2021-04-26 13:14:47 GMT 38.949089 -77.438530 0 4 17 0
2021-04-26 13:14:46 GMT 38.949020 -77.438553 0 0 18 0
2021-04-26 13:14:45 GMT 38.948929 -77.438553 0 1 16 0
2021-04-26 13:14:43 GMT 38.948780 -77.438538 0 4 17 0
2021-04-26 13:14:42 GMT 38.948700 -77.438568 0 359 18 0
2021-04-26 13:14:40 GMT 38.948540 -77.438591 0 351 18 0
2021-04-26 13:14:39 GMT 38.948448 -77.438568 0 354 17 0
2021-04-26 13:14:38 GMT 38.948299 -77.438530 0 0 18 0
2021-04-26 13:14:36 GMT 38.948219 -77.438530 0 1 18 0
2021-04-26 13:14:35 GMT 38.948132 -77.438553 0 357 18 0
2021-04-26 13:14:33 GMT 38.947960 -77.438530 0 1 17 0
2021-04-26 13:14:32 GMT 38.947880 -77.438538 0 0 18 0
2021-04-26 13:14:31 GMT 38.947720 -77.438522 0 4 19 0
2021-04-26 13:14:29 GMT 38.947632 -77.438553 0 0 19 0
2021-04-26 13:14:28 GMT 38.947540 -77.438538 0 3 18 0
2021-04-26 13:14:26 GMT 38.947369 -77.438553 0 4 19 0
2021-04-26 13:14:25 GMT 38.947269 -77.438538 0 7 18 0
2021-04-26 13:14:24 GMT 38.947189 -77.438591 0 358 18 0
2021-04-26 13:14:23 GMT 38.947090 -77.438583 0 359 16 0
2021-04-26 13:14:21 GMT 38.946949 -77.438591 0 356 17 0
2021-04-26 13:14:20 GMT 38.946869 -77.438599 0 354 17 0
2021-04-26 13:14:19 GMT 38.946781 -77.438568 0 357 16 0
2021-04-26 13:14:17 GMT 38.946629 -77.438560 0 2 17 0
2021-04-26 13:14:16 GMT 38.946548 -77.438538 0 8 16 0
2021-04-26 13:14:15 GMT 38.946468 -77.438591 0 0 16 0
2021-04-26 13:14:14 GMT 38.946331 -77.438591 0 1 17 0
2021-04-26 13:14:12 GMT 38.946259 -77.438568 0 5 17 0
2021-04-26 13:14:11 GMT 38.946171 -77.438599 0 1 17 0
2021-04-26 13:14:10 GMT 38.946018 -77.438583 0 5 16 0
2021-04-26 13:14:08 GMT 38.945930 -77.438622 0 357 16 0
2021-04-26 13:14:07 GMT 38.945869 -77.438622 0 356 16 0
2021-04-26 13:14:06 GMT 38.945709 -77.438629 0 349 15 0
2021-04-26 13:14:04 GMT 38.945660 -77.438599 0 354 17 0
2021-04-26 13:14:02 GMT 38.945469 -77.438568 0 0 15 0
2021-04-26 13:14:01 GMT 38.945389 -77.438583 0 359 14 0
2021-04-26 13:14:00 GMT 38.945259 -77.438583 0 359 14 0
2021-04-26 13:13:58 GMT 38.945202 -77.438568 0 2 15 0
2021-04-26 13:13:57 GMT 38.945122 -77.438568 0 3 14 0
2021-04-26 13:13:55 GMT 38.944988 -77.438568 0 5 15 0
2021-04-26 13:13:54 GMT 38.944939 -77.438591 0 1 16 0
2021-04-26 13:13:53 GMT 38.944851 -77.438599 0 0 15 0
2021-04-26 13:13:51 GMT 38.944698 -77.438606 0 1 12 0
2021-04-26 13:13:50 GMT 38.944649 -77.438606 0 3 14 0
2021-04-26 13:13:49 GMT 38.944592 -77.438591 0 4 13 0
2021-04-26 13:13:47 GMT 38.944462 -77.438637 0 354 14 0
2021-04-26 13:13:46 GMT 38.944401 -77.438637 0 354 15 0
2021-04-26 13:13:44 GMT 38.944260 -77.438622 0 356 13 0
2021-04-26 13:13:43 GMT 38.944199 -77.438622 0 355 14 0
2021-04-26 13:13:42 GMT 38.944149 -77.438599 0 0 15 0
2021-04-26 13:13:41 GMT 38.944080 -77.438599 0 358 16 0
2021-04-26 13:13:39 GMT 38.943909 -77.438591 0 4 12 0
2021-04-26 13:13:38 GMT 38.943859 -77.438568 0 7 12 0
2021-04-26 13:13:37 GMT 38.943760 -77.438583 0 7 14 0
2021-04-26 13:13:35 GMT 38.943699 -77.438629 0 356 14 0
2021-04-26 13:13:33 GMT 38.943569 -77.438599 0 2 14 0
2021-04-26 13:13:32 GMT 38.943501 -77.438622 0 359 14 0
2021-04-26 13:13:31 GMT 38.943359 -77.438591 0 7 13 0
2021-04-26 13:13:29 GMT 38.943291 -77.438599 0 6 11 0
2021-04-26 13:13:28 GMT 38.943241 -77.438637 0 0 11 0
2021-04-26 13:13:26 GMT 38.943161 -77.438629 0 2 14 0
2021-04-26 13:13:25 GMT 38.943100 -77.438660 0 351 14 0
2021-04-26 13:13:24 GMT 38.942959 -77.438637 0 354 12 0
2021-04-26 13:13:23 GMT 38.942909 -77.438622 0 355 13 0
2021-04-26 13:13:21 GMT 38.942841 -77.438599 0 355 12 0
2021-04-26 13:13:19 GMT 38.942719 -77.438622 0 346 13 0
2021-04-26 13:13:18 GMT 38.942661 -77.438591 0 348 13 0
2021-04-26 13:13:17 GMT 38.942539 -77.438583 0 343 12 0
2021-04-26 13:13:14 GMT 38.942410 -77.438507 0 349 9 0
2021-04-26 13:13:13 GMT 38.942379 -77.438499 0 349 10 0
2021-04-26 13:13:12 GMT 38.942341 -77.438492 0 348 10 0
2021-04-26 13:13:10 GMT 38.942249 -77.438469 0 346 11 0
2021-04-26 13:13:09 GMT 38.942211 -77.438469 0 344 12 0
2021-04-26 13:13:08 GMT 38.942139 -77.438438 0 347 10 0
2021-04-26 13:13:06 GMT 38.942039 -77.438423 0 341 9 0
2021-04-26 13:13:05 GMT 38.942001 -77.438408 0 340 9 0
2021-04-26 13:13:03 GMT 38.941921 -77.438362 0 340 9 0
2021-04-26 13:13:02 GMT 38.941879 -77.438347 0 336 8 0
2021-04-26 13:13:01 GMT 38.941830 -77.438339 0 334 8 0
2021-04-26 13:12:59 GMT 38.941769 -77.438301 0 333 9 0
2021-04-26 13:12:58 GMT 38.941719 -77.438263 0 336 6 0
2021-04-26 13:12:57 GMT 38.941669 -77.438240 0 326 6 0
2021-04-26 13:12:55 GMT 38.941631 -77.438217 0 314 4 0
2021-04-26 13:12:53 GMT 38.941608 -77.438202 0 300 4 0
2021-04-26 13:12:52 GMT 38.941570 -77.438164 0 279 3 0
2021-04-26 13:12:50 GMT 38.941540 -77.438171 0 277 3 0
2021-04-26 13:12:49 GMT 38.941490 -77.438133 0 275 0 0
2021-04-26 13:12:44 GMT 38.941479 -77.438118 0 275 0 0
2021-04-26 13:12:42 GMT 38.941479 -77.438133 0 275 0 0
2021-04-26 13:12:41 GMT 38.941479 -77.438118 0 275 0 0
2021-04-26 13:12:39 GMT 38.941479 -77.438133 0 275 0 0
2021-04-26 13:12:35 GMT 38.941479 -77.438118 0 275 0 0
2021-04-26 13:12:31 GMT 38.941471 -77.438118 0 275 0 0
2021-04-26 13:12:29 GMT 38.941471 -77.438118 0 275 0 0
2021-04-26 13:12:24 GMT 38.941479 -77.438118 0 275 0 0
2021-04-26 13:12:19 GMT 38.941479 -77.438133 0 276 0 0
2021-04-26 13:12:15 GMT 38.941502 -77.438087 0 278 0 0
2021-04-26 13:12:13 GMT 38.941502 -77.438103 0 278 0 0
2021-04-26 13:12:12 GMT 38.941490 -77.438087 0 278 0 0
2021-04-26 13:12:09 GMT 38.941471 -77.438118 0 278 0 0
2021-04-26 13:12:07 GMT 38.941490 -77.438133 0 281 0 0
2021-04-26 13:12:06 GMT 38.941490 -77.438118 0 281 1 0
2021-04-26 13:12:05 GMT 38.941479 -77.438141 0 281 1 0
2021-04-26 13:12:02 GMT 38.941509 -77.438118 0 284 0 0
2021-04-26 13:11:59 GMT 38.941471 -77.438133 0 284 0 0
2021-04-26 13:11:58 GMT 38.941479 -77.438133 0 284 0 0
2021-04-26 13:11:56 GMT 38.941471 -77.438133 0 286 0 0
2021-04-26 13:11:55 GMT 38.941448 -77.438133 0 287 2 0
2021-04-26 13:11:54 GMT 38.941460 -77.438133 0 288 2 0
2021-04-26 13:11:52 GMT 38.941490 -77.438118 0 291 1 0
2021-04-26 13:11:51 GMT 38.941479 -77.438141 0 291 1 0
2021-04-26 13:11:48 GMT 38.941490 -77.438118 0 291 0 0
2021-04-26 13:11:47 GMT 38.941479 -77.438110 0 291 1 0
2021-04-26 13:11:46 GMT 38.941509 -77.438133 0 291 1 0
2021-04-26 13:11:44 GMT 38.941479 -77.438118 0 291 0 0
2021-04-26 13:11:43 GMT 38.941471 -77.438148 0 292 2 0
2021-04-26 13:11:40 GMT 38.941479 -77.438103 0 293 0 0
2021-04-26 13:11:39 GMT 38.941509 -77.438103 0 293 1 0
2021-04-26 13:11:37 GMT 38.941509 -77.438103 0 293 1 0
2021-04-26 13:11:36 GMT 38.941471 -77.438080 0 296 1 0
2021-04-26 13:11:34 GMT 38.941471 -77.438087 0 296 1 0
2021-04-26 13:11:33 GMT 38.941490 -77.438110 0 296 0 0
2021-04-26 13:11:32 GMT 38.941460 -77.438141 0 296 0 0
2021-04-26 13:11:29 GMT 38.941471 -77.438110 0 297 0 0
2021-04-26 13:11:24 GMT 38.941471 -77.438110 0 298 0 0
2021-04-26 13:11:23 GMT 38.941471 -77.438103 0 299 0 0
2021-04-26 13:11:21 GMT 38.941471 -77.438110 0 301 0 0
2021-04-26 13:11:19 GMT 38.941471 -77.438103 0 302 0 0
2021-04-26 13:11:18 GMT 38.941521 -77.438087 0 301 1 0
2021-04-26 13:11:16 GMT 38.941490 -77.438103 0 301 0 0
2021-04-26 13:11:13 GMT 38.941471 -77.438103 0 301 0 0
2021-04-26 13:11:10 GMT 38.941479 -77.438110 0 302 0 0
2021-04-26 13:11:09 GMT 38.941479 -77.438133 0 302 0 0
2021-04-26 13:11:06 GMT 38.941479 -77.438110 0 303 0 0
2021-04-26 13:11:04 GMT 38.941460 -77.438118 0 303 1 0
2021-04-26 13:11:02 GMT 38.941479 -77.438141 0 303 1 0
2021-04-26 13:11:00 GMT 38.941471 -77.438118 0 303 0 0
2021-04-26 13:10:57 GMT 38.941471 -77.438110 0 303 0 0
2021-04-26 13:10:56 GMT 38.941448 -77.438103 0 303 0 0
2021-04-26 13:10:54 GMT 38.941460 -77.438103 0 303 0 0
2021-04-26 13:10:52 GMT 38.941490 -77.438080 0 303 2 0
2021-04-26 13:10:50 GMT 38.941471 -77.438118 0 303 0 0
2021-04-26 13:10:48 GMT 38.941479 -77.438118 0 303 0 0
2021-04-26 13:10:47 GMT 38.941490 -77.438110 0 303 0 0
2021-04-26 13:10:45 GMT 38.941479 -77.438118 0 303 0 0
2021-04-26 13:10:44 GMT 38.941490 -77.438118 0 303 0 0
2021-04-26 13:10:41 GMT 38.941479 -77.438118 0 303 0 0
2021-04-26 13:10:40 GMT 38.941479 -77.438110 0 303 0 0
2021-04-26 13:10:39 GMT 38.941479 -77.438118 0 303 0 0
2021-04-26 13:10:34 GMT 38.941479 -77.438118 0 303 0 0
2021-04-26 13:10:33 GMT 38.941479 -77.438133 0 303 0 0
2021-04-26 13:10:30 GMT 38.941479 -77.438133 0 303 0 0
2021-04-26 13:10:26 GMT 38.941479 -77.438118 0 304 0 0
2021-04-26 13:10:24 GMT 38.941490 -77.438133 0 306 1 0
2021-04-26 13:10:21 GMT 38.941490 -77.438087 0 306 0 0
2021-04-26 13:10:18 GMT 38.941490 -77.438087 0 306 0 0
2021-04-26 13:10:17 GMT 38.941490 -77.438080 0 306 0 0
2021-04-26 13:10:14 GMT 38.941471 -77.438110 0 306 0 0
2021-04-26 13:10:12 GMT 38.941460 -77.438103 0 306 1 0
2021-04-26 13:10:11 GMT 38.941471 -77.438133 0 306 0 0
2021-04-26 13:10:09 GMT 38.941471 -77.438133 0 306 0 0
2021-04-26 13:10:08 GMT 38.941460 -77.438133 0 306 0 0
2021-04-26 13:10:06 GMT 38.941460 -77.438118 0 306 0 0
2021-04-26 13:10:04 GMT 38.941460 -77.438141 0 306 1 0
2021-04-26 13:10:02 GMT 38.941460 -77.438141 0 307 1 0
2021-04-26 13:10:00 GMT 38.941460 -77.438118 0 307 1 0
2021-04-26 13:09:59 GMT 38.941460 -77.438110 0 307 0 0
2021-04-26 13:09:57 GMT 38.941490 -77.438080 0 308 1 0
2021-04-26 13:09:55 GMT 38.941479 -77.438057 0 305 2 0
2021-04-26 13:09:54 GMT 38.941460 -77.438080 0 302 1 0
2021-04-26 13:09:53 GMT 38.941479 -77.438080 0 297 1 0
2021-04-26 13:09:51 GMT 38.941460 -77.438072 0 291 2 0
2021-04-26 13:09:50 GMT 38.941460 -77.438080 0 291 2 0
2021-04-26 13:09:49 GMT 38.941460 -77.438118 0 291 1 0
2021-04-26 13:09:47 GMT 38.941479 -77.438141 0 291 1 0
2021-04-26 13:09:46 GMT 38.941479 -77.438133 0 291 1 0
2021-04-26 13:09:45 GMT 38.941479 -77.438118 0 292 1 0
2021-04-26 13:09:43 GMT 38.941479 -77.438110 0 292 2 0
2021-04-26 13:09:42 GMT 38.941471 -77.438110 0 292 0 0
2021-04-26 13:09:39 GMT 38.941471 -77.438110 0 292 0 0
2021-04-26 13:09:37 GMT 38.941471 -77.438110 0 295 0 0
2021-04-26 13:09:35 GMT 38.941471 -77.438103 0 295 0 0
2021-04-26 13:09:33 GMT 38.941479 -77.438110 0 295 0 0
2021-04-26 13:09:32 GMT 38.941471 -77.438103 0 295 0 0
2021-04-26 13:09:31 GMT 38.941471 -77.438118 0 295 0 0
2021-04-26 13:09:29 GMT 38.941471 -77.438110 0 295 0 0
2021-04-26 13:09:28 GMT 38.941471 -77.438103 0 295 0 0
2021-04-26 13:09:24 GMT 38.941471 -77.438110 0 296 0 0
2021-04-26 13:09:22 GMT 38.941471 -77.438118 0 296 1 0
2021-04-26 13:09:20 GMT 38.941502 -77.438087 0 297 0 0
2021-04-26 13:09:19 GMT 38.941509 -77.438087 0 297 1 0
2021-04-26 13:09:18 GMT 38.941441 -77.438133 0 297 1 0
2021-04-26 13:09:16 GMT 38.941460 -77.438148 0 299 1 0
2021-04-26 13:09:15 GMT 38.941471 -77.438141 0 300 2 0
2021-04-26 13:09:14 GMT 38.941479 -77.438110 0 300 0 0
2021-04-26 13:09:12 GMT 38.941490 -77.438103 0 303 0 0
2021-04-26 13:09:11 GMT 38.941471 -77.438110 0 303 0 0
2021-04-26 13:09:09 GMT 38.941471 -77.438110 0 303 0 0
2021-04-26 13:09:08 GMT 38.941471 -77.438110 0 303 0 0
2021-04-26 13:09:06 GMT 38.941471 -77.438110 0 303 0 0
2021-04-26 13:09:03 GMT 38.941460 -77.438110 0 303 0 0
2021-04-26 13:09:02 GMT 38.941460 -77.438133 0 303 0 0
2021-04-26 13:08:59 GMT 38.941471 -77.438118 0 303 0 0
2021-04-26 13:08:58 GMT 38.941471 -77.438133 0 303 0 0
2021-04-26 13:08:56 GMT 38.941460 -77.438141 0 303 0 0
2021-04-26 13:08:54 GMT 38.941460 -77.438133 0 303 0 0
2021-04-26 13:08:53 GMT 38.941502 -77.438118 0 304 1 0
2021-04-26 13:08:51 GMT 38.941490 -77.438118 0 304 1 0
2021-04-26 13:08:50 GMT 38.941471 -77.438103 0 304 0 0
2021-04-26 13:08:48 GMT 38.941471 -77.438103 0 304 0 0
2021-04-26 13:08:47 GMT 38.941490 -77.438110 0 306 0 0
2021-04-26 13:08:43 GMT 38.941471 -77.438118 0 306 0 0
2021-04-26 13:08:40 GMT 38.941460 -77.438118 0 306 1 0
2021-04-26 13:08:38 GMT 38.941460 -77.438118 0 311 2 0
2021-04-26 13:08:36 GMT 38.941490 -77.438103 0 312 0 0
2021-04-26 13:08:33 GMT 38.941479 -77.438080 0 312 1 0
2021-04-26 13:08:30 GMT 38.941490 -77.438087 0 312 1 0
2021-04-26 13:08:28 GMT 38.941479 -77.438080 0 310 1 0
2021-04-26 13:08:27 GMT 38.941471 -77.438087 0 308 1 0
2021-04-26 13:08:26 GMT 38.941471 -77.438110 0 308 0 0
2021-04-26 13:08:24 GMT 38.941471 -77.438110 0 309 0 0
2021-04-26 13:08:23 GMT 38.941471 -77.438087 0 312 0 0
2021-04-26 13:08:20 GMT 38.941471 -77.438087 0 312 0 0
2021-04-26 13:08:18 GMT 38.941479 -77.438118 0 314 0 0
2021-04-26 13:08:17 GMT 38.941502 -77.438103 0 315 0 0
2021-04-26 13:08:15 GMT 38.941490 -77.438133 0 315 0 0
2021-04-26 13:08:10 GMT 38.941490 -77.438118 0 315 0 0
2021-04-26 13:08:08 GMT 38.941471 -77.438110 0 315 0 0
2021-04-26 13:08:07 GMT 38.941479 -77.438110 0 315 0 0
2021-04-26 13:08:04 GMT 38.941460 -77.438103 0 315 0 0
2021-04-26 13:08:00 GMT 38.941460 -77.438110 0 315 0 0
2021-04-26 13:07:59 GMT 38.941479 -77.438118 0 315 0 0
2021-04-26 13:07:57 GMT 38.941479 -77.438118 0 315 0 0
2021-04-26 13:07:56 GMT 38.941479 -77.438110 0 315 0 0
2021-04-26 13:07:52 GMT 38.941479 -77.438103 0 317 0 0
2021-04-26 13:07:51 GMT 38.941471 -77.438087 0 317 0 0
2021-04-26 13:07:49 GMT 38.941471 -77.438087 0 317 0 0
2021-04-26 13:07:48 GMT 38.941471 -77.438080 0 317 1 0
2021-04-26 13:07:46 GMT 38.941460 -77.438057 0 319 2 0
2021-04-26 13:07:45 GMT 38.941460 -77.438072 0 316 2 0
2021-04-26 13:07:44 GMT 38.941490 -77.438141 0 316 2 0
2021-04-26 13:07:42 GMT 38.941490 -77.438133 0 316 2 0
2021-04-26 13:07:40 GMT 38.941502 -77.438133 0 317 1 0
2021-04-26 13:07:38 GMT 38.941502 -77.438110 0 317 1 0
2021-04-26 13:07:36 GMT 38.941471 -77.438080 0 317 0 0
2021-04-26 13:07:35 GMT 38.941471 -77.438103 0 317 2 -32
2021-04-26 13:07:32 GMT 38.941448 -77.438049 0 318 2 -32
2021-04-26 13:07:31 GMT 38.941490 -77.438042 0 317 2 -32
2021-04-26 13:07:29 GMT 38.941448 -77.438080 0 317 2 -32
2021-04-26 13:07:26 GMT 38.941471 -77.438103 0 317 0 -32
2021-04-26 13:07:25 GMT 38.941490 -77.438110 0 317 0 -32
2021-04-26 13:07:24 GMT 38.941502 -77.438110 0 317 1 -32
2021-04-26 13:07:23 GMT 38.941479 -77.438118 0 313 0 -32
2021-04-26 13:07:17 GMT 38.941471 -77.438133 0 319 0 -32
2021-04-26 13:07:13 GMT 38.941479 -77.438133 0 319 0 -32
2021-04-26 13:07:12 GMT 38.941471 -77.438118 0 319 0 -32
2021-04-26 13:07:03 GMT 38.941479 -77.438133 0 318 0 -32
2021-04-26 13:07:02 GMT 38.941471 -77.438133 0 318 0 -32
2021-04-26 13:07:01 GMT 38.941479 -77.438164 0 320 4 -32
2021-04-26 13:07:00 GMT 38.941471 -77.438141 0 328 4 -32
2021-04-26 13:06:57 GMT 38.941448 -77.438087 0 346 5 -32
2021-04-26 13:06:56 GMT 38.941422 -77.438072 0 338 5 -32
2021-04-26 13:06:54 GMT 38.941368 -77.438103 0 320 8 -32
2021-04-26 13:06:53 GMT 38.941330 -77.438080 0 321 8 -32
2021-04-26 13:06:52 GMT 38.941292 -77.437988 0 329 11 -32
2021-04-26 13:06:51 GMT 38.941238 -77.437981 0 325 11 -32
2021-04-26 13:06:49 GMT 38.941212 -77.437943 0 325 12 -32
2021-04-26 13:06:48 GMT 38.941139 -77.437881 0 328 10 -32
2021-04-26 13:06:46 GMT 38.941071 -77.437820 0 329 15 -32
2021-04-26 13:06:45 GMT 38.941021 -77.437782 0 329 16 -32
2021-04-26 13:06:44 GMT 38.940891 -77.437683 0 330 20 -32
2021-04-26 13:06:42 GMT 38.940830 -77.437622 0 333 22 -32
2021-04-26 13:06:40 GMT 38.940651 -77.437531 0 329 24 -32
2021-04-26 13:06:39 GMT 38.940540 -77.437462 0 327 24 -32
2021-04-26 13:06:38 GMT 38.940441 -77.437408 0 324 25 -32
2021-04-26 13:06:36 GMT 38.940281 -77.437233 0 332 29 -32
2021-04-26 13:06:35 GMT 38.940170 -77.437149 0 333 30 -32
2021-04-26 13:06:33 GMT 38.939941 -77.436996 0 335 32 -32
2021-04-26 13:06:32 GMT 38.939812 -77.436913 0 337 32 -32
2021-04-26 13:06:31 GMT 38.939541 -77.436752 0 341 32 -32
2021-04-26 13:06:29 GMT 38.939411 -77.436691 0 341 33 -32
2021-04-26 13:06:28 GMT 38.939110 -77.436600 0 339 33 -32
2021-04-26 13:06:26 GMT 38.938950 -77.436478 0 346 31 -32
2021-04-26 13:06:25 GMT 38.938808 -77.436440 0 347 32 -32
2021-04-26 13:06:24 GMT 38.938671 -77.436394 0 349 33 -32
2021-04-26 13:06:23 GMT 38.938370 -77.436317 0 354 37 -32
2021-04-26 13:06:21 GMT 38.938202 -77.436241 0 0 38 -32
2021-04-26 13:06:20 GMT 38.938030 -77.436234 0 1 39 -32
2021-04-26 13:06:19 GMT 38.937641 -77.436249 100 358 40 -32
2021-04-26 13:06:17 GMT 38.937431 -77.436249 100 359 40 -32
2021-04-26 13:06:15 GMT 38.937038 -77.436234 75 1 43 -32
2021-04-26 13:06:13 GMT 38.936600 -77.436234 75 2 49 -32
2021-04-26 13:06:12 GMT 38.936371 -77.436234 75 2 52 -32
2021-04-26 13:06:11 GMT 38.936138 -77.436272 75 0 56 -32
2021-04-26 13:06:10 GMT 38.935600 -77.436249 75 2 66 0
2021-04-26 13:06:08 GMT 38.935329 -77.436249 75 2 74 0
2021-04-26 13:06:07 GMT 38.935001 -77.436310 75 0 79 0
2021-04-26 13:06:05 GMT 38.934341 -77.436348 75 359 96 0
2021-04-26 13:06:04 GMT 38.933910 -77.436363 75 359 100 0
2021-04-26 13:06:03 GMT 38.932991 -77.436310 75 0 108 0
2021-04-26 13:06:01 GMT 38.932522 -77.436310 75 0 114 0
2021-04-26 13:06:00 GMT 38.931480 -77.436348 75 0 118 0
2021-04-26 13:05:58 GMT 38.930962 -77.436363 75 0 121 0
2021-04-26 13:05:57 GMT 38.930401 -77.436348 75 0 123 0
2021-04-26 13:05:56 GMT 38.929298 -77.436371 75 1 128 0
2021-04-26 13:05:54 GMT 38.928711 -77.436378 75 0 128 0
2021-04-26 13:05:53 GMT 38.928120 -77.436409 75 0 128 -480
2021-04-26 13:05:51 GMT 38.926941 -77.436409 100 0 130 -480
2021-04-26 13:05:50 GMT 38.926331 -77.436447 125 359 128 -480
2021-04-26 13:05:49 GMT 38.925159 -77.436409 150 0 133 -480
2021-04-26 13:05:47 GMT 38.924511 -77.436371 150 2 128 -480
2021-04-26 13:05:46 GMT 38.923920 -77.436432 175 1 130 -480
2021-04-26 13:05:45 GMT 38.922729 -77.436523 200 359 139 -480
2021-04-26 13:05:43 GMT 38.922020 -77.436562 200 358 132 -480
2021-04-26 13:05:41 GMT 38.920780 -77.436470 225 0 137 -480
2021-04-26 13:05:40 GMT 38.920120 -77.436462 250 1 134 -480
2021-04-26 13:05:39 GMT 38.918839 -77.436470 275 2 129 -480
2021-04-26 13:05:37 GMT 38.918251 -77.436523 275 0 129 -480
2021-04-26 13:05:36 GMT 38.917660 -77.436539 300 0 131 -480
2021-04-26 13:05:35 GMT 38.916458 -77.436569 325 0 132 -480
2021-04-26 13:05:33 GMT 38.915901 -77.436577 350 1 136 -480
2021-04-26 13:05:32 GMT 38.915291 -77.436607 350 1 137 -480
2021-04-26 13:05:30 GMT 38.914021 -77.436684 375 358 136 -480
2021-04-26 13:05:29 GMT 38.913380 -77.436630 400 358 136 -480
2021-04-26 13:05:27 GMT 38.912128 -77.436592 425 359 136 -480
2021-04-26 13:05:26 GMT 38.911549 -77.436577 425 359 139 -480
2021-04-26 13:05:25 GMT 38.910198 -77.436523 500 1 135 -480
2021-04-26 13:05:23 GMT 38.909599 -77.436569 450 0 136 -480
2021-04-26 13:05:22 GMT 38.908970 -77.436592 475 0 137 -480
2021-04-26 13:05:20 GMT 38.907681 -77.436531 500 1 136 -704
2021-04-26 13:05:19 GMT 38.907082 -77.436592 500 0 137 -704
2021-04-26 13:05:18 GMT 38.905769 -77.436600 525 0 136 -704
2021-04-26 13:05:16 GMT 38.905079 -77.436569 525 1 134 -704
2021-04-26 13:05:15 GMT 38.904499 -77.436607 600 1 136 -704
2021-04-26 13:05:13 GMT 38.903252 -77.436684 550 0 135 -704
2021-04-26 13:05:12 GMT 38.902649 -77.436691 575 0 136 -704
2021-04-26 13:05:11 GMT 38.902039 -77.436668 600 1 138 -704
2021-04-26 13:05:09 GMT 38.900749 -77.436707 625 2 137 -704
2021-04-26 13:05:08 GMT 38.900082 -77.436752 650 1 136 -704
2021-04-26 13:05:06 GMT 38.898842 -77.436852 650 0 136 -704
2021-04-26 13:05:05 GMT 38.898319 -77.436890 675 0 142 -704
2021-04-26 13:05:04 GMT 38.896839 -77.436859 700 359 131 -704
2021-04-26 13:05:02 GMT 38.896240 -77.436829 700 0 132 -704
2021-04-26 13:04:50 GMT 38.889229 -77.437073 825 0 131 -640
2021-04-26 13:04:42 GMT 38.884201 -77.436951 925 0 127 -768
2021-04-26 13:04:34 GMT 38.879776 -77.437012 1,025 2 129 -832
2021-04-26 13:04:23 GMT 38.873215 -77.437256 1,150 1 131 -768
2021-04-26 13:04:12 GMT 38.866371 -77.437378 1,275 0 129 -704
2021-04-26 13:04:04 GMT 38.861111 -77.437500 1,375 0 129 -704
2021-04-26 13:03:50 GMT 38.853661 -77.437561 1,550 0 130 -768
2021-04-26 13:03:42 GMT 38.848633 -77.437561 1,625 1 132 -768
2021-04-26 13:03:29 GMT 38.840652 -77.437668 1,875 1 135 -832
2021-04-26 13:03:20 GMT 38.835133 -77.437866 1,875 1 138 -768
2021-04-26 13:03:11 GMT 38.829502 -77.437988 2,025 0 137 -896
2021-04-26 13:03:03 GMT 38.824081 -77.438026 2,125 0 139 -768
2021-04-26 13:02:52 GMT 38.817352 -77.438026 2,325 0 140 -896
2021-04-26 13:02:49 GMT 38.814651 -77.438049 2,325 0 140 -896
2021-04-26 13:02:35 GMT 38.806000 -77.438026 2,575 2 143 -704
2021-04-26 13:02:30 GMT 38.803070 -77.438087 2,575 2 143 -704
2021-04-26 13:02:27 GMT 38.801105 -77.438232 2,600 2 146 -576
2021-04-26 13:02:20 GMT 38.791794 -77.438599 2,700 0 141 192
2021-04-26 13:02:15 GMT 38.790211 -77.438660 2,775 0 141 -256
2021-04-26 13:02:12 GMT 38.790211 -77.438660 2,775 0 141 -256
2021-04-26 13:02:06 GMT 38.784672 -77.438721 2,800 0 140 0
2021-04-26 13:01:58 GMT 38.781464 -77.438744 2,800 0 140 0
2021-04-26 13:01:48 GMT 38.774918 -77.438683 2,800 0 141 192
2021-04-26 13:01:38 GMT 38.768749 -77.438721 2,775 1 166 0
2021-04-26 13:01:32 GMT 38.763199 -77.438744 2,775 1 166 0
2021-04-26 13:01:28 GMT 38.761627 -77.438782 2,800 0 156 -64
2021-04-26 13:01:22 GMT 38.756645 -77.438782 2,800 1 161 -64
2021-04-26 13:01:19 GMT 38.755203 -77.438843 2,800 1 161 -64
2021-04-26 13:01:16 GMT 38.751526 -77.438927 2,800 1 162 0
2021-04-26 13:01:08 GMT 38.745987 -77.439102 2,800 1 168 -64
2021-04-26 13:01:03 GMT 38.743149 -77.439163 2,800 1 168 -128
2021-04-26 13:00:57 GMT 38.738434 -77.439285 2,825 0 169 -64
2021-04-26 13:00:54 GMT 38.735275 -77.439346 2,825 0 169 128
2021-04-26 13:00:47 GMT 38.730606 -77.439400 2,775 1 174 -128
2021-04-26 13:00:43 GMT 38.727036 -77.439522 2,775 1 175 -320
2021-04-26 13:00:38 GMT 38.722664 -77.439758 2,800 1 175 -320
2021-04-26 13:00:35 GMT 38.720058 -77.439880 2,800 1 175 0
2021-04-26 13:00:32 GMT 38.718018 -77.439941 2,800 1 175 192
2021-04-26 13:00:26 GMT 38.713261 -77.440002 2,800 0 176 64
2021-04-26 13:00:22 GMT 38.709595 -77.440056 2,800 0 176 -64
2021-04-26 13:00:17 GMT 38.705933 -77.440117 2,800 0 175 64
2021-04-26 13:00:14 GMT 38.703278 -77.440178 2,800 0 175 -64
2021-04-26 13:00:11 GMT 38.701481 -77.440247 2,800 0 175 0
2021-04-26 13:00:06 GMT 38.696918 -77.440308 2,800 0 175 128
2021-04-26 13:00:01 GMT 38.692638 -77.440369 2,800 0 176 64
2021-04-26 12:59:56 GMT 38.688538 -77.440361 2,800 0 176 0
2021-04-26 12:59:53 GMT 38.686119 -77.440369 2,800 0 177 0
2021-04-26 12:59:47 GMT 38.681351 -77.440475 2,800 0 177 -64
2021-04-26 12:59:43 GMT 38.677879 -77.440552 2,800 0 177 -64
2021-04-26 12:59:33 GMT 38.669361 -77.440735 2,800 0 178 0
2021-04-26 12:59:28 GMT 38.665405 -77.440796 2,800 0 178 -128
2021-04-26 12:59:24 GMT 38.662426 -77.440796 2,800 0 178 0
2021-04-26 12:59:20 GMT 38.659538 -77.440857 2,800 0 178 64
2021-04-26 12:59:15 GMT 38.654510 -77.440918 2,800 0 178 0
2021-04-26 12:59:11 GMT 38.652508 -77.440979 2,800 0 178 0
2021-04-26 12:59:08 GMT 38.649902 -77.440979 2,800 0 178 0
2021-04-26 12:59:04 GMT 38.646225 -77.441101 2,800 1 178 64
2021-04-26 12:59:02 GMT 38.643898 -77.441162 2,800 1 178 64
2021-04-26 12:58:53 GMT 38.636913 -77.441345 2,800 1 179 64
2021-04-26 12:58:48 GMT 38.632912 -77.441467 2,800 1 179 0
2021-04-26 12:58:44 GMT 38.629166 -77.441612 2,800 1 180 64
2021-04-26 12:58:38 GMT 38.625092 -77.441788 2,800 1 180 -64
2021-04-26 12:58:34 GMT 38.621063 -77.441971 2,800 1 180 -128
2021-04-26 12:58:31 GMT 38.617874 -77.442078 2,800 2 179 -128
2021-04-26 12:58:28 GMT 38.615387 -77.442207 2,800 2 179 -64
2021-04-26 12:58:23 GMT 38.612568 -77.442322 2,800 1 178 192
2021-04-26 12:58:20 GMT 38.609261 -77.442444 2,800 1 177 -128
2021-04-26 12:58:17 GMT 38.607193 -77.442505 2,800 1 177 -64
2021-04-26 12:58:13 GMT 38.602844 -77.442688 2,800 1 176 128
2021-04-26 12:58:08 GMT 38.598999 -77.442802 2,800 1 175 -64
2021-04-26 12:58:02 GMT 38.595528 -77.442932 2,800 0 175 -64
2021-04-26 12:57:59 GMT 38.592728 -77.442924 2,800 0 174 -64
2021-04-26 12:57:56 GMT 38.590267 -77.442932 2,800 0 174 0
2021-04-26 12:57:51 GMT 38.584263 -77.442749 2,800 358 171 64
2021-04-26 12:57:48 GMT 38.582958 -77.442688 2,800 358 171 64
2021-04-26 12:57:43 GMT 38.579514 -77.442566 2,800 358 171 64
2021-04-26 12:57:37 GMT 38.574440 -77.442383 2,800 0 177 -128
2021-04-26 12:57:32 GMT 38.571182 -77.442322 2,775 0 175 -64
2021-04-26 12:57:27 GMT 38.567272 -77.442383 2,800 0 178 -128
2021-04-26 12:57:22 GMT 38.562698 -77.442505 2,825 1 183 -640
2021-04-26 12:57:15 GMT 38.556705 -77.442627 2,900 1 189 -704
2021-04-26 12:57:11 GMT 38.553959 -77.442749 2,950 1 189 -704
2021-04-26 12:57:06 GMT 38.548462 -77.442863 3,025 1 192 -768
2021-04-26 12:57:02 GMT 38.544846 -77.442986 3,075 1 192 -704
2021-04-26 12:56:54 GMT 38.538757 -77.443108 3,150 0 194 -768
2021-04-26 12:56:51 GMT 38.535507 -77.443161 3,200 0 195 -768
2021-04-26 12:56:44 GMT 38.529327 -77.443222 3,275 1 197 -704
2021-04-26 12:56:40 GMT 38.525841 -77.443298 3,325 2 197 -768
2021-04-26 12:56:34 GMT 38.519440 -77.443642 3,400 2 198 -704
2021-04-26 12:56:31 GMT 38.516670 -77.443787 3,450 2 198 -704
2021-04-26 12:56:24 GMT 38.510605 -77.444122 3,525 3 197 -704
2021-04-26 12:56:20 GMT 38.507309 -77.444359 3,550 3 197 -768
2021-04-26 12:56:15 GMT 38.502960 -77.444717 3,625 4 190 64
2021-04-26 12:56:10 GMT 38.498051 -77.445068 3,675 3 195 -768
2021-04-26 12:56:03 GMT 38.491837 -77.445496 3,775 3 192 -512
2021-04-26 12:55:59 GMT 38.488739 -77.445740 3,800 3 191 -128
2021-04-26 12:55:50 GMT 38.479801 -77.446533 3,800 4 190 64
2021-04-26 12:55:42 GMT 38.472816 -77.447266 3,800 7 190 64
2021-04-26 12:55:39 GMT 38.470676 -77.447571 3,800 6 190 0
2021-04-26 12:55:35 GMT 38.465881 -77.448418 3,800 12 192 0
2021-04-26 12:55:32 GMT 38.464672 -77.448669 3,800 12 192 64
2021-04-26 12:55:28 GMT 38.461349 -77.449677 3,800 15 192 -64
2021-04-26 12:55:19 GMT 38.452972 -77.453972 3,800 28 198 0
2021-04-26 12:55:12 GMT 38.447540 -77.458496 3,800 37 203 64
2021-04-26 12:55:06 GMT 38.443680 -77.462746 3,775 42 204 64
2021-04-26 12:55:02 GMT 38.438511 -77.470398 3,800 50 208 -128
2021-04-26 12:54:58 GMT 38.438511 -77.470398 3,800 52 209 -192
2021-04-26 12:54:50 GMT 38.434273 -77.477600 3,800 55 210 64
2021-04-26 12:54:47 GMT 38.432693 -77.480598 3,800 61 212 192
2021-04-26 12:54:42 GMT 38.430130 -77.487854 3,775 73 217 -64
2021-04-26 12:54:36 GMT 38.429104 -77.493896 3,800 80 220 -64
2021-04-26 12:54:26 GMT 38.428070 -77.506577 3,800 84 221 0
2021-04-26 12:54:19 GMT 38.427246 -77.516487 3,800 84 221 64
2021-04-26 12:54:09 GMT 38.426220 -77.529724 3,800 84 221 -128
2021-04-26 12:54:02 GMT 38.425472 -77.539062 3,800 84 221 64
2021-04-26 12:53:58 GMT 38.425095 -77.543472 3,800 84 221 64
2021-04-26 12:53:55 GMT 38.424824 -77.546814 3,800 84 221 0
2021-04-26 12:53:49 GMT 38.424076 -77.556091 3,800 84 220 64
2021-04-26 12:53:39 GMT 38.423035 -77.567719 3,800 81 218 -192
2021-04-26 12:53:34 GMT 38.421936 -77.575928 3,800 81 218 -192
2021-04-26 12:53:29 GMT 38.420929 -77.580734 3,800 70 212 64
2021-04-26 12:53:26 GMT 38.420105 -77.583481 3,800 62 209 0
2021-04-26 12:53:18 GMT 38.415047 -77.592346 3,800 39 201 -64
2021-04-26 12:53:08 GMT 38.406342 -77.598106 3,800 13 194 128
2021-04-26 12:53:02 GMT 38.402573 -77.598717 3,800 8 194 128
2021-04-26 12:52:56 GMT 38.397308 -77.598190 3,800 352 190 64
2021-04-26 12:52:45 GMT 38.386688 -77.596199 3,800 352 191 0
2021-04-26 12:52:38 GMT 38.380371 -77.595032 3,800 352 191 64
2021-04-26 12:52:34 GMT 38.377991 -77.594566 3,800 351 190 0
2021-04-26 12:52:19 GMT 38.363701 -77.590645 3,800 344 188 -64
2021-04-26 12:52:07 GMT 38.355743 -77.583115 3,800 299 191 0
2021-04-26 12:51:49 GMT 38.352528 -77.563293 3,800 254 201 0
2021-04-26 12:51:41 GMT 38.354156 -77.555595 3,800 254 201 0
2021-04-26 12:51:29 GMT 38.357437 -77.541504 3,800 254 202 -64
2021-04-26 12:51:24 GMT 38.358810 -77.535660 3,800 254 201 -64
2021-04-26 12:51:21 GMT 38.359604 -77.532188 3,800 254 201 0
2021-04-26 12:51:11 GMT 38.362396 -77.519890 3,800 254 200 64
2021-04-26 12:51:01 GMT 38.364769 -77.509499 3,800 255 201 64
2021-04-26 12:50:51 GMT 38.367329 -77.497978 3,800 255 201 -64
2021-04-26 12:50:37 GMT 38.371243 -77.481201 3,800 253 201 -64
2021-04-26 12:50:30 GMT 38.373047 -77.474594 3,800 248 201 64
2021-04-26 12:50:20 GMT 38.377945 -77.463943 3,800 228 210 -64
2021-04-26 12:50:09 GMT 38.385204 -77.454803 3,800 224 211 0
2021-04-26 12:50:03 GMT 38.390167 -77.448761 3,800 224 210 0
2021-04-26 12:49:59 GMT 38.392330 -77.446213 3,800 224 210 0
2021-04-26 12:49:52 GMT 38.397404 -77.440002 3,800 224 210 -64
2021-04-26 12:49:49 GMT 38.399685 -77.437309 3,800 224 210 0
2021-04-26 12:49:38 GMT 38.407150 -77.428253 3,800 224 210 -64
2021-04-26 12:49:29 GMT 38.414719 -77.419128 3,800 224 211 0
2021-04-26 12:49:22 GMT 38.418911 -77.414062 3,800 224 212 0
2021-04-26 12:49:18 GMT 38.421749 -77.410583 3,800 224 212 0
2021-04-26 12:49:08 GMT 38.428921 -77.401917 3,800 224 212 -64
2021-04-26 12:48:56 GMT 38.437252 -77.391846 3,800 224 212 -64
2021-04-26 12:48:47 GMT 38.443954 -77.383850 3,800 224 211 64
2021-04-26 12:48:36 GMT 38.451637 -77.374634 3,800 224 210 0
2021-04-26 12:48:29 GMT 38.456478 -77.368835 3,800 224 210 -64
2021-04-26 12:48:26 GMT 38.458237 -77.366676 3,800 224 210 0
2021-04-26 12:48:17 GMT 38.465469 -77.357964 3,800 224 210 64
2021-04-26 12:48:08 GMT 38.471191 -77.351097 3,800 224 211 0
2021-04-26 12:48:05 GMT 38.473434 -77.348404 3,800 224 212 64
2021-04-26 12:47:59 GMT 38.477940 -77.343018 3,800 224 212 64
2021-04-26 12:47:53 GMT 38.481709 -77.338501 3,800 224 214 -64
2021-04-26 12:47:48 GMT 38.485931 -77.333420 3,800 224 214 -64
2021-04-26 12:47:45 GMT 38.488861 -77.329895 3,800 224 215 64
2021-04-26 12:47:39 GMT 38.493069 -77.324829 3,800 224 215 -64
2021-04-26 12:47:35 GMT 38.495117 -77.322327 3,800 225 216 -64
2021-04-26 12:47:28 GMT 38.500332 -77.315796 3,800 225 216 0
2021-04-26 12:47:25 GMT 38.502457 -77.313118 3,800 226 215 -64
2021-04-26 12:47:17 GMT 38.507641 -77.306335 3,800 228 213 -64
2021-04-26 12:47:14 GMT 38.509968 -77.303040 3,800 229 212 -64
2021-04-26 12:47:05 GMT 38.515320 -77.292938 3,800 247 206 -128
2021-04-26 12:46:56 GMT 38.517563 -77.284218 3,800 254 202 -64
2021-04-26 12:46:53 GMT 38.518486 -77.280334 3,800 254 202 128
2021-04-26 12:46:47 GMT 38.520023 -77.273315 3,800 254 204 -128
2021-04-26 12:46:37 GMT 38.523010 -77.260635 3,825 253 204 -448
2021-04-26 12:46:32 GMT 38.523979 -77.256714 3,875 253 203 -832
2021-04-26 12:46:25 GMT 38.525841 -77.248901 3,950 253 203 -832
2021-04-26 12:46:21 GMT 38.527039 -77.244034 4,025 253 203 -832
2021-04-26 12:46:13 GMT 38.529236 -77.234840 4,125 254 204 -832
2021-04-26 12:46:03 GMT 38.532124 -77.222473 4,275 254 206 -768
2021-04-26 12:45:55 GMT 38.535477 -77.208374 4,550 254 206 -768
2021-04-26 12:45:51 GMT 38.537525 -77.199951 4,550 253 208 -768
2021-04-26 12:45:43 GMT 38.537525 -77.199951 4,525 253 208 -768
2021-04-26 12:45:40 GMT 38.538456 -77.196228 4,600 251 207 -768
2021-04-26 12:45:37 GMT 38.539764 -77.191315 4,600 251 207 -768
2021-04-26 12:45:33 GMT 38.540737 -77.187866 4,650 249 208 -704
2021-04-26 12:45:30 GMT 38.541622 -77.185120 4,725 245 210 -576
2021-04-26 12:45:24 GMT 38.544975 -77.176697 4,750 238 213 -576
2021-04-26 12:45:20 GMT 38.546814 -77.173637 4,850 219 225 -576
2021-04-26 12:45:14 GMT 38.551632 -77.168213 4,850 212 230 -704
2021-04-26 12:45:09 GMT 38.556240 -77.164917 4,900 207 234 -704
2021-04-26 12:45:03 GMT 38.561646 -77.161942 4,975 203 238 -640
2021-04-26 12:44:59 GMT 38.566132 -77.159554 5,075 203 239 -640
2021-04-26 12:44:54 GMT 38.572021 -77.156433 5,050 203 241 -640
2021-04-26 12:44:46 GMT 38.579773 -77.152328 5,125 203 243 -640
2021-04-26 12:44:43 GMT 38.582703 -77.150772 5,200 203 244 -704
2021-04-26 12:44:40 GMT 38.585426 -77.149353 5,225 203 244 -640
2021-04-26 12:44:37 GMT 38.590034 -77.146851 5,250 203 244 -640
2021-04-26 12:44:32 GMT 38.594131 -77.144714 5,300 203 244 -640
2021-04-26 12:44:29 GMT 38.597305 -77.143066 5,325 203 244 -576
2021-04-26 12:44:26 GMT 38.599823 -77.141754 5,325 203 244 -576
2021-04-26 12:44:23 GMT 38.604904 -77.139069 5,450 203 245 -576
2021-04-26 12:44:20 GMT 38.606934 -77.138000 5,400 203 244 -576
2021-04-26 12:44:17 GMT 38.610947 -77.135902 5,450 203 244 -640
2021-04-26 12:44:10 GMT 38.618294 -77.132080 5,500 202 243 -640
2021-04-26 12:44:07 GMT 38.623535 -77.129395 5,550 203 242 -640
2021-04-26 12:43:59 GMT 38.628719 -77.126770 5,625 201 233 -384
2021-04-26 12:43:54 GMT 38.633701 -77.124207 5,675 202 237 -576
2021-04-26 12:43:50 GMT 38.637634 -77.122231 5,700 202 237 -576
2021-04-26 12:43:46 GMT 38.643311 -77.119370 5,750 202 236 -512
2021-04-26 12:43:39 GMT 38.649445 -77.116318 5,775 201 233 -256
2021-04-26 12:43:36 GMT 38.651962 -77.115189 5,800 201 233 -128
2021-04-26 12:43:28 GMT 38.660282 -77.111511 5,800 195 231 192
2021-04-26 12:43:24 GMT 38.664520 -77.110107 5,800 193 232 192
2021-04-26 12:43:21 GMT 38.668213 -77.109276 5,800 184 236 0
2021-04-26 12:43:16 GMT 38.673477 -77.109093 5,800 178 238 -64
2021-04-26 12:43:13 GMT 38.675766 -77.109154 5,800 178 238 -64
2021-04-26 12:43:09 GMT 38.681030 -77.109398 5,800 177 243 0
2021-04-26 12:43:02 GMT 38.689911 -77.109810 5,775 177 240 64
2021-04-26 12:42:58 GMT 38.694176 -77.109985 5,775 178 241 -64
2021-04-26 12:42:55 GMT 38.697601 -77.110168 5,800 178 242 -64
2021-04-26 12:42:52 GMT 38.699478 -77.110229 5,775 177 242 64
2021-04-26 12:42:49 GMT 38.704330 -77.110474 5,800 177 242 64
2021-04-26 12:42:46 GMT 38.706161 -77.110527 5,775 177 242 64
2021-04-26 12:42:43 GMT 38.710003 -77.110718 5,775 177 246 64
2021-04-26 12:42:38 GMT 38.715271 -77.110947 5,775 177 244 0
2021-04-26 12:42:34 GMT 38.720261 -77.111183 5,775 177 244 64
2021-04-26 12:42:29 GMT 38.725876 -77.111511 5,775 177 245 64
2021-04-26 12:42:27 GMT 38.728958 -77.111664 5,775 177 246 64
2021-04-26 12:42:24 GMT 38.732346 -77.111816 5,775 178 246 -64
2021-04-26 12:42:18 GMT 38.737885 -77.112061 5,800 174 247 -64
2021-04-26 12:42:16 GMT 38.740860 -77.112198 5,800 175 246 -128
2021-04-26 12:42:12 GMT 38.750271 -77.113770 5,800 157 250 -128
2021-04-26 12:42:07 GMT 38.751892 -77.114349 5,800 160 249 -128
2021-04-26 12:42:04 GMT 38.755203 -77.115784 5,800 157 250 -128
2021-04-26 12:42:01 GMT 38.761070 -77.119629 5,800 150 249 64
2021-04-26 12:41:57 GMT 38.761070 -77.119629 5,800 147 250 64
2021-04-26 12:41:55 GMT 38.763840 -77.122292 5,800 140 250 128
2021-04-26 12:41:52 GMT 38.765259 -77.123901 5,800 135 250 64
2021-04-26 12:41:47 GMT 38.769821 -77.131042 5,800 122 248 192
2021-04-26 12:41:42 GMT 38.775314 -77.142761 5,800 120 247 -64
2021-04-26 12:41:35 GMT 38.776199 -77.144653 5,800 120 247 -64
2021-04-26 12:41:32 GMT 38.778385 -77.149414 5,800 120 247 -64
2021-04-26 12:41:25 GMT 38.782112 -77.157593 5,800 120 245 -64
2021-04-26 12:41:21 GMT 38.784439 -77.162659 5,800 119 244 -64
2021-04-26 12:41:15 GMT 38.790024 -77.175110 5,800 119 240 64
2021-04-26 12:41:12 GMT 38.790024 -77.175110 5,800 119 240 64
2021-04-26 12:41:05 GMT 38.793377 -77.182739 5,800 119 240 128
2021-04-26 12:41:01 GMT 38.795845 -77.188232 5,775 119 241 192
2021-04-26 12:40:56 GMT 38.798630 -77.194420 5,775 120 242 128
2021-04-26 12:40:54 GMT 38.799706 -77.196716 5,775 120 243 -64
2021-04-26 12:40:50 GMT 38.801708 -77.201172 5,775 120 245 -256
2021-04-26 12:40:47 GMT 38.803619 -77.205322 5,800 119 247 0
2021-04-26 12:40:44 GMT 38.805038 -77.208572 5,800 119 246 64
2021-04-26 12:40:41 GMT 38.807762 -77.214600 5,800 119 247 64
2021-04-26 12:40:34 GMT 38.811440 -77.222839 5,800 119 248 0
2021-04-26 12:40:30 GMT 38.813141 -77.226723 5,800 119 249 64
2021-04-26 12:40:23 GMT 38.817120 -77.235657 5,800 120 253 64
2021-04-26 12:40:19 GMT 38.819229 -77.240273 5,800 120 254 64
2021-04-26 12:40:13 GMT 38.823215 -77.248962 5,800 120 259 64
2021-04-26 12:40:10 GMT 38.825405 -77.253723 5,800 120 261 0
2021-04-26 12:40:03 GMT 38.829151 -77.259590 5,800 118 298 -1248
2021-04-26 12:40:02 GMT 38.830479 -77.262680 5,800 118 298 -1248
2021-04-26 12:40:00 GMT 38.831139 -77.264229 5,800 118 298 -1248
2021-04-26 12:39:59 GMT 38.831799 -77.265770 5,800 118 298 -1248
2021-04-26 12:39:58 GMT 38.833130 -77.268860 5,800 118 298 -1248
2021-04-26 12:39:56 GMT 38.833790 -77.270409 5,800 118 298 -1248
2021-04-26 12:39:55 GMT 38.834461 -77.271957 5,800 118 298 -1248
2021-04-26 12:39:54 GMT 38.835781 -77.275047 5,800 118 298 -1248
2021-04-26 12:39:52 GMT 38.836449 -77.276588 5,800 118 298 -1248
2021-04-26 12:39:51 GMT 38.837109 -77.278137 5,800 118 298 -1248
2021-04-26 12:39:49 GMT 38.838440 -77.281227 5,800 118 298 -1248
2021-04-26 12:39:48 GMT 38.839100 -77.282784 5,800 118 298 -1248
2021-04-26 12:39:47 GMT 38.839771 -77.284317 5,800 118 298 -1248
2021-04-26 12:39:46 GMT 38.841091 -77.287422 5,800 118 298 -1248
2021-04-26 12:39:44 GMT 38.841759 -77.288963 5,800 118 298 -1248
2021-04-26 12:39:42 GMT 38.843079 -77.292061 5,800 118 298 -1248
2021-04-26 12:39:40 GMT 38.844410 -77.295151 5,800 118 298 -1248
2021-04-26 12:39:39 GMT 38.845070 -77.296700 5,800 118 298 -1248
2021-04-26 12:39:38 GMT 38.845741 -77.298241 5,800 118 298 -1248
2021-04-26 12:39:36 GMT 38.847061 -77.301338 5,800 118 298 -1248
2021-04-26 12:39:35 GMT 38.847729 -77.302879 5,800 118 298 -1248
2021-04-26 12:39:34 GMT 38.848389 -77.304428 5,800 118 298 -1248
2021-04-26 12:39:33 GMT 38.849049 -77.305969 5,800 118 298 -1248
2021-04-26 12:39:31 GMT 38.850349 -77.308838 5,800 118 301 -1248
2021-04-26 12:39:29 GMT 38.851688 -77.311974 5,800 118 301 -1248
2021-04-26 12:39:28 GMT 38.852360 -77.313538 5,800 118 301 -1248
2021-04-26 12:39:26 GMT 38.853691 -77.316612 5,900 118 302 -1248
2021-04-26 12:39:25 GMT 38.854359 -77.318176 5,900 118 302 -1248
2021-04-26 12:39:24 GMT 38.855030 -77.319748 5,900 118 302 -1248
2021-04-26 12:39:22 GMT 38.856258 -77.322762 6,000 118 305 -1248
2021-04-26 12:39:21 GMT 38.856941 -77.324341 6,000 118 305 -1248
2021-04-26 12:39:20 GMT 38.857620 -77.325928 6,000 118 305 -1248
2021-04-26 12:39:18 GMT 38.858952 -77.329079 6,200 118 305 -1248
2021-04-26 12:39:17 GMT 38.859631 -77.330673 6,200 118 305 -1248
2021-04-26 12:39:16 GMT 38.860321 -77.332253 6,200 118 305 -1248
2021-04-26 12:39:14 GMT 38.861649 -77.335312 6,200 118 307 -1248
2021-04-26 12:39:13 GMT 38.862339 -77.336899 6,200 118 307 -1248
2021-04-26 12:39:12 GMT 38.863022 -77.338501 6,200 118 307 -1248
2021-04-26 12:39:10 GMT 38.864391 -77.341690 6,200 118 307 -1248
2021-04-26 12:39:09 GMT 38.864948 -77.343071 6,300 118 311 -1248
2021-04-26 12:39:08 GMT 38.866341 -77.346291 6,300 118 311 -1248
2021-04-26 12:39:06 GMT 38.867031 -77.347900 6,300 118 311 -1248
2021-04-26 12:39:05 GMT 38.867729 -77.349510 6,300 118 311 -1248
2021-04-26 12:39:03 GMT 38.869080 -77.352676 6,500 118 312 -1248
2021-04-26 12:39:02 GMT 38.869781 -77.354286 6,500 118 312 -608
2021-04-26 12:39:01 GMT 38.871170 -77.357590 6,500 119 311 -608
2021-04-26 12:38:59 GMT 38.871868 -77.359200 6,500 119 311 -608
2021-04-26 12:38:58 GMT 38.872570 -77.360817 6,500 119 311 -608
2021-04-26 12:38:56 GMT 38.873970 -77.364037 6,500 119 311 -608
2021-04-26 12:38:55 GMT 38.874531 -77.365631 6,600 119 313 -608
2021-04-26 12:38:54 GMT 38.875950 -77.368874 6,600 119 313 -608
2021-04-26 12:38:52 GMT 38.876659 -77.370491 6,600 119 313 -608
2021-04-26 12:38:51 GMT 38.877369 -77.372108 6,600 119 313 -608
2021-04-26 12:38:50 GMT 38.878761 -77.375458 6,700 119 312 -608
2021-04-26 12:38:48 GMT 38.879471 -77.377068 6,700 119 312 -608
2021-04-26 12:38:47 GMT 38.880840 -77.380287 6,800 119 312 -608
2021-04-26 12:38:45 GMT 38.881550 -77.381897 6,800 119 312 -608
2021-04-26 12:38:44 GMT 38.882271 -77.383507 6,800 119 312 -608
2021-04-26 12:38:42 GMT 38.883701 -77.386719 6,800 119 312 -608
2021-04-26 12:38:41 GMT 38.884411 -77.388519 7,100 119 309 -608
2021-04-26 12:38:40 GMT 38.885132 -77.390106 7,100 119 309 -608
2021-04-26 12:38:39 GMT 38.886551 -77.393288 7,100 119 309 -608
2021-04-26 12:38:37 GMT 38.887321 -77.394958 7,100 119 309 -608
2021-04-26 12:38:36 GMT 38.888741 -77.398140 7,100 119 309 -608
2021-04-26 12:38:34 GMT 38.889450 -77.399727 7,100 119 309 -608
2021-04-26 12:38:33 GMT 38.890160 -77.401314 7,100 119 309 -608
2021-04-26 12:38:31 GMT 38.891449 -77.404289 7,300 119 316 -608
2021-04-26 12:38:30 GMT 38.892181 -77.405907 7,300 119 316 -608
2021-04-26 12:38:29 GMT 38.892941 -77.407578 7,300 119 314 -608
2021-04-26 12:38:28 GMT 38.894421 -77.410751 7,300 119 315 -608
2021-04-26 12:38:26 GMT 38.895191 -77.412376 7,300 119 315 -608
2021-04-26 12:38:25 GMT 38.895901 -77.414009 7,300 119 315 -608
2021-04-26 12:38:24 GMT 38.896542 -77.415657 7,300 119 314 -608
2021-04-26 12:38:22 GMT 38.897831 -77.418732 7,375 120 324 -608
2021-04-26 12:38:20 GMT 38.899422 -77.422119 7,375 119 319 -608
2021-04-26 12:38:19 GMT 38.899960 -77.423599 7,600 119 326 -608
2021-04-26 12:38:18 GMT 38.900711 -77.425270 7,600 119 326 -608
2021-04-26 12:38:16 GMT 38.902531 -77.428787 7,600 117 312 -608
2021-04-26 12:38:15 GMT 38.903221 -77.430428 7,600 117 311 -608
2021-04-26 12:38:14 GMT 38.904510 -77.433670 7,600 117 313 -608
2021-04-26 12:38:12 GMT 38.905239 -77.435341 7,700 116 312 -608
2021-04-26 12:38:11 GMT 38.905930 -77.436981 7,700 116 312 -608
2021-04-26 12:38:10 GMT 38.907059 -77.440231 7,775 117 317 -608
2021-04-26 12:38:08 GMT 38.907890 -77.441933 7,775 116 312 -608
2021-04-26 12:38:07 GMT 38.908581 -77.443588 7,775 116 312 -608
2021-04-26 12:38:05 GMT 38.909908 -77.446877 7,875 115 312 -608
2021-04-26 12:38:04 GMT 38.910568 -77.448540 7,875 115 311 -608
2021-04-26 12:38:02 GMT 38.911880 -77.451874 7,875 115 310 -896
2021-04-26 12:38:01 GMT 38.912319 -77.453522 7,875 116 314 -896
2021-04-26 12:38:00 GMT 38.912979 -77.455162 7,875 116 315 -896
2021-04-26 12:37:58 GMT 38.914410 -77.458481 8,000 115 311 -896
2021-04-26 12:37:57 GMT 38.915058 -77.460159 8,000 114 310 -896
2021-04-26 12:37:56 GMT 38.915661 -77.461830 8,000 114 310 -896
2021-04-26 12:37:54 GMT 38.916908 -77.465157 8,000 114 309 -896
2021-04-26 12:37:53 GMT 38.917561 -77.466858 8,000 114 307 -896
2021-04-26 12:37:52 GMT 38.918140 -77.468498 8,000 114 307 -896
2021-04-26 12:37:50 GMT 38.919312 -77.471786 8,100 114 310 -896
2021-04-26 12:37:49 GMT 38.919880 -77.473480 8,100 114 309 -896
2021-04-26 12:37:48 GMT 38.920479 -77.475151 8,100 114 309 -896
2021-04-26 12:37:46 GMT 38.921661 -77.478447 8,200 114 311 -896
2021-04-26 12:37:45 GMT 38.922260 -77.480133 8,200 114 311 -896
2021-04-26 12:37:44 GMT 38.922829 -77.481850 8,200 114 310 -896
2021-04-26 12:37:42 GMT 38.924030 -77.485168 8,200 114 310 -896
2021-04-26 12:37:41 GMT 38.924622 -77.486893 8,200 114 309 -896
2021-04-26 12:37:39 GMT 38.925770 -77.490334 8,200 114 306 -896
2021-04-26 12:37:38 GMT 38.926380 -77.491898 8,250 114 308 -896
2021-04-26 12:37:37 GMT 38.927570 -77.495247 8,300 114 307 -896
2021-04-26 12:37:35 GMT 38.928150 -77.496902 8,300 114 307 -896
2021-04-26 12:37:34 GMT 38.929352 -77.500183 8,350 114 307 -896
2021-04-26 12:37:32 GMT 38.929958 -77.501862 8,350 114 307 -896
2021-04-26 12:37:31 GMT 38.931149 -77.505173 8,400 114 307 -896
2021-04-26 12:37:30 GMT 38.931782 -77.506668 8,400 114 309 -896
2021-04-26 12:37:28 GMT 38.932381 -77.508392 8,400 114 307 -896
2021-04-26 12:37:27 GMT 38.933559 -77.511703 8,500 114 307 -896
2021-04-26 12:37:25 GMT 38.934132 -77.513390 8,500 113 307 -896
2021-04-26 12:37:24 GMT 38.934761 -77.514801 8,500 113 311 -896
2021-04-26 12:37:22 GMT 38.935860 -77.518311 8,500 114 310 -896
2021-04-26 12:37:21 GMT 38.936432 -77.519974 8,500 114 311 -896
2021-04-26 12:37:20 GMT 38.937080 -77.521408 8,600 113 314 -896
2021-04-26 12:37:19 GMT 38.937641 -77.523216 8,600 113 312 -896
2021-04-26 12:37:17 GMT 38.938808 -77.526756 8,600 114 309 -896
2021-04-26 12:37:16 GMT 38.939419 -77.528450 8,600 113 308 -896
2021-04-26 12:37:14 GMT 38.940601 -77.531647 8,600 113 311 -896
2021-04-26 12:37:13 GMT 38.941181 -77.533363 8,675 113 310 -896
2021-04-26 12:37:12 GMT 38.941738 -77.535172 8,675 113 307 -896
2021-04-26 12:37:11 GMT 38.944427 -77.542458 8,675 113 308 -896
2021-04-26 12:37:08 GMT 38.944427 -77.542458 8,700 113 302 -896
2021-04-26 12:37:03 GMT 38.946945 -77.549805 8,775 113 302 -896
2021-04-26 12:37:00 GMT 38.948273 -77.553741 8,800 113 302 -960
2021-04-26 12:36:55 GMT 38.954212 -77.571350 8,925 113 304 -1024
2021-04-26 12:36:51 GMT 38.954212 -77.571350 8,975 113 304 -1024
2021-04-26 12:36:47 GMT 38.955612 -77.575378 9,100 113 304 -1024
2021-04-26 12:36:45 GMT 38.956963 -77.579407 9,075 113 305 -1024
2021-04-26 12:36:41 GMT 38.959290 -77.586121 9,125 113 306 -1024
2021-04-26 12:36:37 GMT 38.961502 -77.592499 9,225 114 308 -960
2021-04-26 12:36:35 GMT 38.963013 -77.596802 9,225 114 310 -1024
2021-04-26 12:36:31 GMT 38.965107 -77.602905 9,300 114 311 -1024
2021-04-26 12:36:27 GMT 38.967529 -77.609680 9,350 114 313 -1024
2021-04-26 12:36:23 GMT 38.969948 -77.616455 9,550 109 340 -1600
2021-04-26 12:36:20 GMT 38.971527 -77.620918 9,450 114 318 -640
2021-04-26 12:36:17 GMT 38.973858 -77.627502 9,500 113 322 -576
2021-04-26 12:36:15 GMT 38.975071 -77.631042 9,525 113 325 -448
2021-04-26 12:36:10 GMT 38.977722 -77.638916 9,575 112 329 -1216
2021-04-26 12:36:07 GMT 38.979633 -77.644775 9,775 112 332 -1792
2021-04-26 12:36:04 GMT 38.981186 -77.649574 10,050 111 336 -1920
2021-04-26 12:36:00 GMT 38.983635 -77.657410 9,875 111 336 -1664
2021-04-26 12:35:57 GMT 38.985870 -77.664978 10,100 109 340 -1600
2021-04-26 12:35:51 GMT 38.988663 -77.674805 10,100 108 344 -1728
2021-04-26 12:35:47 GMT 38.990711 -77.682434 10,250 108 342 -1664
2021-04-26 12:35:43 GMT 38.992527 -77.689392 10,475 108 345 -1728
2021-04-26 12:35:40 GMT 38.995056 -77.699074 10,475 108 344 -1728
2021-04-26 12:35:35 GMT 38.996346 -77.704102 10,725 108 347 -1664
2021-04-26 12:35:32 GMT 38.998672 -77.713043 10,650 108 346 -1664
2021-04-26 12:35:28 GMT 39.000160 -77.718872 10,750 108 347 -1664
2021-04-26 12:35:26 GMT 39.000999 -77.722168 10,775 108 348 -1664
2021-04-26 12:35:23 GMT 39.003159 -77.730484 10,900 108 349 -1664
2021-04-26 12:35:19 GMT 39.004490 -77.735596 11,100 108 354 -1664
2021-04-26 12:35:16 GMT 39.006725 -77.744324 11,075 108 353 -1600
2021-04-26 12:35:09 GMT 39.009979 -77.756752 11,250 108 356 -1728
2021-04-26 12:35:06 GMT 39.012314 -77.765709 11,400 108 360 -1792
2021-04-26 12:35:04 GMT 39.012314 -77.765709 11,550 108 360 -1792
2021-04-26 12:35:01 GMT 39.014500 -77.774292 11,525 108 360 -1792
2021-04-26 12:34:57 GMT 39.016361 -77.781494 11,625 108 361 -1728
2021-04-26 12:34:54 GMT 39.018085 -77.788086 11,800 108 362 -1728
2021-04-26 12:34:51 GMT 39.019409 -77.793297 11,775 108 362 -1728
2021-04-26 12:34:46 GMT 39.022274 -77.804382 11,925 108 364 -1856
2021-04-26 12:34:41 GMT 39.025112 -77.815308 12,200 108 364 -1664
2021-04-26 12:34:36 GMT 39.027100 -77.823029 12,200 108 365 -1728
2021-04-26 12:34:33 GMT 39.029022 -77.830261 12,300 108 365 -1728
2021-04-26 12:34:29 GMT 39.030624 -77.836525 12,400 108 364 -1792
2021-04-26 12:34:26 GMT 39.032608 -77.844299 12,500 108 364 -1792
2021-04-26 12:34:23 GMT 39.034561 -77.851807 12,625 108 364 -1856
2021-04-26 12:34:18 GMT 39.037266 -77.862305 12,750 108 364 -1792
2021-04-26 12:34:15 GMT 39.038567 -77.867249 12,825 108 364 -1728
2021-04-26 12:34:12 GMT 39.040104 -77.873230 12,900 108 364 -1728
2021-04-26 12:34:07 GMT 39.042618 -77.883179 13,050 108 365 -1792
2021-04-26 12:34:04 GMT 39.043919 -77.888184 13,125 108 365 -1792
2021-04-26 12:33:59 GMT 39.047195 -77.901131 13,300 108 367 -1728
2021-04-26 12:33:54 GMT 39.049347 -77.909485 13,425 108 367 -1792
2021-04-26 12:33:52 GMT 39.050903 -77.915649 13,450 108 368 -1792
2021-04-26 12:33:47 GMT 39.053375 -77.925308 13,625 108 369 -1728
2021-04-26 12:33:44 GMT 39.054657 -77.930321 13,700 108 369 -1728
2021-04-26 12:33:41 GMT 39.056580 -77.937904 13,800 108 369 -1728
2021-04-26 12:33:38 GMT 39.058399 -77.945007 13,900 108 370 -1792
2021-04-26 12:33:34 GMT 39.060074 -77.951477 14,000 108 370 -1792
2021-04-26 12:33:31 GMT 39.061844 -77.958435 14,100 108 371 -1792
2021-04-26 12:33:26 GMT 39.064590 -77.969078 14,250 108 371 -1792
2021-04-26 12:33:22 GMT 39.066406 -77.976257 14,350 108 371 -1792
2021-04-26 12:33:20 GMT 39.068253 -77.983406 14,450 108 371 -1792
2021-04-26 12:33:16 GMT 39.070175 -77.990990 14,550 108 371 -1792
2021-04-26 12:33:12 GMT 39.072098 -77.998512 14,675 108 371 -1728
2021-04-26 12:33:10 GMT 39.073109 -78.002319 14,725 108 371 -1728
2021-04-26 12:33:03 GMT 39.076740 -78.016602 15,000 108 370 -1792
2021-04-26 12:32:59 GMT 39.078648 -78.023926 15,025 108 369 -1792
2021-04-26 12:32:55 GMT 39.081024 -78.033264 15,175 108 369 -1792
2021-04-26 12:32:52 GMT 39.082325 -78.038269 15,225 108 369 -1792
2021-04-26 12:32:49 GMT 39.084549 -78.047050 15,350 108 369 -1792
2021-04-26 12:32:45 GMT 39.086796 -78.055664 15,900 108 371 -1792
2021-04-26 12:32:42 GMT 39.088284 -78.061523 15,550 108 371 -1792
2021-04-26 12:32:39 GMT 39.089634 -78.066772 15,625 108 371 -1792
2021-04-26 12:32:31 GMT 39.093685 -78.082520 15,850 108 373 -1792
2021-04-26 12:32:28 GMT 39.095222 -78.088440 15,925 108 373 -1792
2021-04-26 12:32:24 GMT 39.097828 -78.098755 16,075 108 375 -1728
2021-04-26 12:32:19 GMT 39.099968 -78.107361 16,200 107 376 -1728
2021-04-26 12:32:17 GMT 39.101624 -78.113930 16,400 107 377 -1600
2021-04-26 12:32:11 GMT 39.104599 -78.125931 16,425 107 377 -1728
2021-04-26 12:32:08 GMT 39.106293 -78.132736 16,525 107 377 -1664
2021-04-26 12:32:02 GMT 39.109268 -78.144737 16,750 107 377 -1536
2021-04-26 12:31:59 GMT 39.111095 -78.152039 16,750 107 376 -1024
2021-04-26 12:31:51 GMT 39.115147 -78.168274 16,800 107 376 -64
2021-04-26 12:31:47 GMT 39.117783 -78.178947 16,800 107 377 0
2021-04-26 12:31:41 GMT 39.121216 -78.192680 16,800 107 378 -64
2021-04-26 12:31:37 GMT 39.122681 -78.198715 16,800 107 379 -64
2021-04-26 12:31:32 GMT 39.125427 -78.209877 16,800 107 379 -64
2021-04-26 12:31:27 GMT 39.128086 -78.220520 16,800 107 380 -64
2021-04-26 12:31:21 GMT 39.131763 -78.235413 16,800 107 382 0
2021-04-26 12:31:17 GMT 39.133675 -78.243225 16,800 107 382 0
2021-04-26 12:31:14 GMT 39.134975 -78.248474 16,800 107 382 -64
2021-04-26 12:31:09 GMT 39.137421 -78.258423 16,800 107 382 0
2021-04-26 12:31:06 GMT 39.139114 -78.265404 16,800 107 382 0
2021-04-26 12:31:03 GMT 39.140888 -78.272705 16,800 107 382 0
2021-04-26 12:30:59 GMT 39.142776 -78.280396 16,800 107 383 64
2021-04-26 12:30:56 GMT 39.144699 -78.288277 16,800 107 383 64
2021-04-26 12:30:50 GMT 39.147491 -78.299500 16,800 107 383 0
2021-04-26 12:30:47 GMT 39.149002 -78.305649 16,800 107 383 0
2021-04-26 12:30:44 GMT 39.150852 -78.313049 16,800 108 384 0
2021-04-26 12:30:41 GMT 39.153271 -78.322632 16,800 107 384 -64
2021-04-26 12:30:37 GMT 39.157509 -78.341064 16,800 105 384 -64
2021-04-26 12:30:27 GMT 39.159668 -78.351151 16,800 104 385 -64
2021-04-26 12:30:20 GMT 39.162689 -78.367210 16,800 101 387 -448
2021-04-26 12:30:16 GMT 39.164070 -78.375000 16,825 102 386 -384
2021-04-26 12:30:08 GMT 39.167004 -78.395020 16,975 97 388 -2176
2021-04-26 12:29:58 GMT 39.170197 -78.424828 17,775 97 389 -1920
2021-04-26 12:29:50 GMT 39.171101 -78.433838 17,600 97 388 -2368
2021-04-26 12:29:22 GMT 39.177567 -78.498566 18,525 97 389 -1856
2021-04-26 12:29:14 GMT 39.179489 -78.517914 19,200 97 390 -1856
2021-04-26 12:29:01 GMT 39.182373 -78.546814 19,175 97 396 -1920
2021-04-26 12:28:53 GMT 39.184250 -78.565445 19,425 97 395 -1920
2021-04-26 12:28:44 GMT 39.186310 -78.586159 19,700 97 399 -1920
2021-04-26 12:28:31 GMT 39.189396 -78.617126 20,100 97 403 -1920
2021-04-26 12:28:22 GMT 39.191586 -78.639221 20,425 97 408 -1984
2021-04-26 12:28:12 GMT 39.193913 -78.663452 21,400 97 412 -2240
2021-04-26 12:28:04 GMT 39.195786 -78.682289 21,075 97 413 -2944
2021-04-26 12:27:58 GMT 39.197266 -78.697571 21,400 97 411 -2816
2021-04-26 12:27:51 GMT 39.199127 -78.716507 21,725 97 416 -1984
2021-04-26 12:27:33 GMT 39.203175 -78.757996 22,300 97 416 -1984
2021-04-26 12:27:23 GMT 39.205490 -78.782005 22,625 97 419 -2048
2021-04-26 12:27:12 GMT 39.208191 -78.809708 23,000 97 420 -2048
2021-04-26 12:27:04 GMT 39.210159 -78.829590 23,250 97 424 -2048
2021-04-26 12:27:00 GMT 39.211182 -78.840149 23,400 97 428 -2112
2021-04-26 12:26:53 GMT 39.213043 -78.858727 23,675 97 429 -2112
2021-04-26 12:26:50 GMT 39.213913 -78.867867 23,775 97 429 -2112
2021-04-26 12:26:43 GMT 39.216934 -78.898499 24,050 97 433 -2112
2021-04-26 12:26:37 GMT 39.216934 -78.898499 24,200 97 433 -2112
2021-04-26 12:26:31 GMT 39.218445 -78.913841 24,450 97 436 -2112
2021-04-26 12:26:28 GMT 39.219177 -78.921242 24,500 97 436 -2112
2021-04-26 12:26:20 GMT 39.220917 -78.939575 24,750 96 437 -1728
2021-04-26 12:26:16 GMT 39.223389 -78.967697 25,100 96 438 -1728
2021-04-26 12:26:10 GMT 39.224171 -78.976562 25,325 96 438 -1664
2021-04-26 12:26:06 GMT 39.224171 -78.976562 25,325 96 439 -1664
2021-04-26 12:26:00 GMT 39.225815 -78.995819 25,550 96 439 -1664
2021-04-26 12:25:56 GMT 39.226547 -79.004234 25,550 96 439 -1664
2021-04-26 12:25:48 GMT 39.228333 -79.024895 25,825 96 439 -1728
2021-04-26 12:25:41 GMT 39.229889 -79.042686 26,050 96 437 -1728
2021-04-26 12:25:36 GMT 39.231106 -79.056702 26,050 96 437 -1728
2021-04-26 12:25:32 GMT 39.232224 -79.069679 26,200 96 436 -1664
2021-04-26 12:25:25 GMT 39.233574 -79.084656 26,375 96 437 -1728
2021-04-26 12:25:21 GMT 39.234512 -79.095535 26,500 96 438 -1728
2021-04-26 12:25:18 GMT 39.235291 -79.104668 26,600 96 438 -1728
2021-04-26 12:25:07 GMT 39.237625 -79.131119 26,875 96 444 -1792
2021-04-26 12:24:57 GMT 39.239906 -79.158203 27,200 96 447 -1728
2021-04-26 12:24:43 GMT 39.243896 -79.198227 27,625 99 452 -1728
2021-04-26 12:24:40 GMT 39.244400 -79.202347 27,650 99 454 -1664
2021-04-26 12:24:36 GMT 39.246002 -79.214348 27,775 101 458 -2176
2021-04-26 12:24:29 GMT 39.248657 -79.231667 28,000 101 458 -2176
2021-04-26 12:24:25 GMT 39.250519 -79.242676 28,150 103 460 -2240
2021-04-26 12:24:14 GMT 39.256058 -79.270752 28,525 105 463 -2240
2021-04-26 12:24:05 GMT 39.262157 -79.296082 28,875 108 465 -2240
2021-04-26 12:23:54 GMT 39.270489 -79.327881 29,325 108 467 -2240
2021-04-26 12:23:44 GMT 39.276543 -79.351196 29,650 108 472 0
2021-04-26 12:23:36 GMT 39.281982 -79.371925 31,000 108 472 0
2021-04-26 12:23:03 GMT 39.305824 -79.462952 31,000 108 472 0
2021-04-26 12:22:57 GMT 39.309311 -79.476410 31,000 108 473 64
2021-04-26 12:22:49 GMT 39.315041 -79.498352 31,000 108 473 64
2021-04-26 12:22:46 GMT 39.317047 -79.506149 31,000 108 473 64
2021-04-26 12:22:36 GMT 39.323822 -79.531998 31,000 108 472 0
2021-04-26 12:22:28 GMT 39.330311 -79.557129 31,000 108 472 0
2021-04-26 12:22:16 GMT 39.337807 -79.585938 31,000 108 471 64
2021-04-26 12:22:08 GMT 39.343826 -79.609146 31,000 108 470 0
2021-04-26 12:22:00 GMT 39.348885 -79.628723 31,000 108 470 64
2021-04-26 12:21:44 GMT 39.360626 -79.674049 31,000 108 469 0
2021-04-26 12:21:33 GMT 39.367317 -79.699951 31,000 108 468 -128
2021-04-26 12:21:04 GMT 39.387268 -79.777222 31,100 108 468 -896
2021-04-26 12:20:58 GMT 39.392410 -79.797119 31,325 108 468 -2240
2021-04-26 12:20:51 GMT 39.396057 -79.811317 31,525 108 468 -2176
2021-04-26 12:20:46 GMT 39.400093 -79.827026 31,725 108 471 -64
2021-04-26 12:20:36 GMT 39.406265 -79.850960 32,075 108 467 -2240
2021-04-26 12:20:33 GMT 39.409012 -79.861832 32,350 108 467 -2240
2021-04-26 12:20:21 GMT 39.416656 -79.891563 32,650 108 468 -2240
2021-04-26 12:20:11 GMT 39.423294 -79.917297 32,975 108 469 -2240
2021-04-26 12:20:01 GMT 39.430210 -79.944519 33,375 108 470 -2240
2021-04-26 12:19:52 GMT 39.437210 -79.971748 33,750 108 472 -2176
2021-04-26 12:19:41 GMT 39.443897 -79.998047 34,125 108 472 -2176
2021-04-26 12:19:30 GMT 39.451530 -80.028015 34,525 108 473 -2176
2021-04-26 12:19:20 GMT 39.459167 -80.057983 34,900 108 473 -1664
2021-04-26 12:19:13 GMT 39.462891 -80.072540 34,975 108 471 -704
2021-04-26 12:19:07 GMT 39.467175 -80.089355 35,000 108 471 0
2021-04-26 12:19:04 GMT 39.469482 -80.098450 35,000 108 471 0
2021-04-26 12:19:00 GMT 39.472458 -80.110214 35,000 108 471 -64
2021-04-26 12:18:52 GMT 39.477905 -80.131653 35,000 108 471 64
2021-04-26 12:18:48 GMT 39.479782 -80.139114 35,000 108 471 0
2021-04-26 12:18:43 GMT 39.484131 -80.156250 35,000 108 471 0
2021-04-26 12:18:39 GMT 39.486725 -80.166443 35,000 108 471 0
2021-04-26 12:18:32 GMT 39.490776 -80.182495 35,000 108 471 0
2021-04-26 12:18:27 GMT 39.494312 -80.196350 35,000 108 471 0
2021-04-26 12:18:23 GMT 39.496735 -80.205994 35,000 108 471 0
2021-04-26 12:18:18 GMT 39.500931 -80.222588 35,000 108 471 0
2021-04-26 12:18:12 GMT 39.504456 -80.236496 35,000 108 471 0
2021-04-26 12:18:06 GMT 39.508438 -80.252258 35,000 108 471 0
2021-04-26 12:18:03 GMT 39.510792 -80.261719 35,000 108 471 -64
2021-04-26 12:17:56 GMT 39.515076 -80.278473 35,000 108 472 0
2021-04-26 12:17:52 GMT 39.517776 -80.289223 35,000 108 472 0
2021-04-26 12:17:45 GMT 39.522629 -80.308449 35,000 108 472 0
2021-04-26 12:17:40 GMT 39.526016 -80.321960 35,000 108 472 -64
2021-04-26 12:17:36 GMT 39.528713 -80.332703 35,000 108 472 0
2021-04-26 12:17:27 GMT 39.535629 -80.360214 35,000 108 472 -64
2021-04-26 12:17:16 GMT 39.542217 -80.386353 35,000 108 472 64
2021-04-26 12:17:11 GMT 39.545563 -80.399681 35,000 108 472 64
2021-04-26 12:17:05 GMT 39.549408 -80.415024 35,000 108 472 0
2021-04-26 12:17:02 GMT 39.552383 -80.426849 35,000 108 472 0
2021-04-26 12:16:55 GMT 39.557007 -80.445122 35,000 108 472 0
2021-04-26 12:16:51 GMT 39.559158 -80.453720 35,000 108 472 0
2021-04-26 12:16:44 GMT 39.563816 -80.472290 35,000 107 471 0
2021-04-26 12:16:35 GMT 39.570099 -80.497604 35,000 107 471 64
2021-04-26 12:16:31 GMT 39.573303 -80.510437 35,000 107 471 64
2021-04-26 12:16:28 GMT 39.575127 -80.517700 35,000 107 470 64
2021-04-26 12:16:25 GMT 39.577225 -80.526001 35,000 107 470 64
2021-04-26 12:16:18 GMT 39.581177 -80.541786 35,000 107 470 0
2021-04-26 12:16:14 GMT 39.584106 -80.553665 35,000 107 470 -64
2021-04-26 12:16:06 GMT 39.589375 -80.574829 35,000 107 470 -64
2021-04-26 12:16:01 GMT 39.592987 -80.589317 35,000 107 470 -64
2021-04-26 12:15:57 GMT 39.595753 -80.600586 35,000 107 470 0
2021-04-26 12:15:54 GMT 39.597702 -80.608421 35,000 107 470 0
2021-04-26 12:15:49 GMT 39.600498 -80.619629 35,000 107 470 64
2021-04-26 12:15:46 GMT 39.602734 -80.628479 35,000 107 471 64
2021-04-26 12:15:43 GMT 39.604782 -80.636841 35,000 107 471 0
2021-04-26 12:15:38 GMT 39.607956 -80.649445 35,000 107 471 64
2021-04-26 12:15:35 GMT 39.609833 -80.656967 35,000 107 471 0
2021-04-26 12:15:32 GMT 39.611984 -80.665619 35,000 107 471 0
2021-04-26 12:15:29 GMT 39.618515 -80.692017 35,000 107 472 0
2021-04-26 12:15:22 GMT 39.618515 -80.692017 35,000 107 472 64
2021-04-26 12:15:19 GMT 39.620773 -80.701149 35,000 107 472 0
2021-04-26 12:15:15 GMT 39.623474 -80.712013 35,000 107 472 0
2021-04-26 12:15:11 GMT 39.625683 -80.721008 35,000 107 472 0
2021-04-26 12:15:08 GMT 39.628151 -80.730896 35,000 107 472 0
2021-04-26 12:15:05 GMT 39.630619 -80.740784 35,000 107 473 0
2021-04-26 12:15:02 GMT 39.632538 -80.748619 35,000 107 473 0
2021-04-26 12:14:57 GMT 39.635239 -80.759544 35,000 107 473 0
2021-04-26 12:14:54 GMT 39.637554 -80.768738 35,000 107 473 0
2021-04-26 12:14:50 GMT 39.639816 -80.777992 35,000 107 473 0
2021-04-26 12:14:46 GMT 39.642471 -80.788620 35,000 107 473 0
2021-04-26 12:14:43 GMT 39.644394 -80.796387 35,000 107 473 0
2021-04-26 12:14:40 GMT 39.646400 -80.804504 35,000 107 473 0
2021-04-26 12:14:36 GMT 39.649845 -80.818542 35,000 107 473 0
2021-04-26 12:14:31 GMT 39.653183 -80.832031 35,000 107 472 0
2021-04-26 12:14:27 GMT 39.655838 -80.842834 35,000 107 472 0
2021-04-26 12:14:23 GMT 39.658218 -80.852570 35,000 107 472 0
2021-04-26 12:14:16 GMT 39.662476 -80.869881 35,000 107 473 0
2021-04-26 12:14:13 GMT 39.665176 -80.880814 35,000 107 473 0
2021-04-26 12:14:09 GMT 39.667053 -80.888336 35,000 107 473 0
2021-04-26 12:14:05 GMT 39.670578 -80.902603 35,000 107 473 0
2021-04-26 12:14:00 GMT 39.673737 -80.915558 35,000 107 473 -64
2021-04-26 12:13:54 GMT 39.676800 -80.927979 35,000 107 473 -64
2021-04-26 12:13:51 GMT 39.679092 -80.937172 35,000 107 473 -64
2021-04-26 12:13:45 GMT 39.683258 -80.954254 35,000 107 473 64
2021-04-26 12:13:42 GMT 39.685829 -80.964722 35,000 107 474 0
2021-04-26 12:13:39 GMT 39.687412 -80.971252 35,000 107 474 0
2021-04-26 12:13:33 GMT 39.691223 -80.986610 35,000 107 473 0
2021-04-26 12:13:29 GMT 39.694580 -81.000427 35,000 107 473 0
2021-04-26 12:13:24 GMT 39.696957 -81.010193 35,000 107 473 0
2021-04-26 12:13:21 GMT 39.699608 -81.020996 35,000 107 473 0
2021-04-26 12:13:18 GMT 39.701145 -81.027283 35,000 107 473 0
2021-04-26 12:13:13 GMT 39.704956 -81.042915 35,000 107 472 -64
2021-04-26 12:13:08 GMT 39.708435 -81.057251 35,000 107 472 -64
2021-04-26 12:13:03 GMT 39.710815 -81.066978 35,000 107 472 0
2021-04-26 12:12:57 GMT 39.714752 -81.083221 35,000 107 472 0
2021-04-26 12:12:53 GMT 39.717361 -81.093971 35,000 107 472 0
2021-04-26 12:12:50 GMT 39.720139 -81.105286 35,000 107 472 0
2021-04-26 12:12:47 GMT 39.721767 -81.111938 35,000 107 474 0
2021-04-26 12:12:42 GMT 39.725445 -81.127075 35,000 107 474 0
2021-04-26 12:12:39 GMT 39.726749 -81.132507 35,000 107 474 0
2021-04-26 12:12:36 GMT 39.729309 -81.142868 35,000 107 474 -64
2021-04-26 12:12:33 GMT 39.731262 -81.150940 35,000 107 474 0
2021-04-26 12:12:29 GMT 39.733566 -81.160362 35,000 107 473 64
2021-04-26 12:12:26 GMT 39.735546 -81.168457 35,000 107 473 0
2021-04-26 12:12:22 GMT 39.737640 -81.177124 35,000 107 473 0
2021-04-26 12:12:19 GMT 39.740387 -81.188545 35,000 107 473 0
2021-04-26 12:12:13 GMT 39.744205 -81.204285 35,000 107 473 0
2021-04-26 12:12:06 GMT 39.749039 -81.224251 35,000 107 473 0
2021-04-26 12:12:02 GMT 39.751282 -81.233521 35,000 107 473 0
2021-04-26 12:11:57 GMT 39.754028 -81.244972 35,000 107 473 0
2021-04-26 12:11:53 GMT 39.757462 -81.259125 35,000 107 473 0
2021-04-26 12:11:47 GMT 39.760803 -81.272972 35,000 107 473 0
2021-04-26 12:11:42 GMT 39.764038 -81.286499 35,000 110 475 0
2021-04-26 12:11:34 GMT 39.769253 -81.308411 35,000 107 472 0
2021-04-26 12:11:31 GMT 39.770836 -81.314880 35,000 107 473 0
2021-04-26 12:11:27 GMT 39.774559 -81.329834 35,000 108 473 0
2021-04-26 12:11:24 GMT 39.776279 -81.336487 35,000 108 473 0
2021-04-26 12:11:21 GMT 39.778015 -81.343254 35,000 108 473 0
2021-04-26 12:11:18 GMT 39.780098 -81.351318 35,000 108 473 0
2021-04-26 12:11:14 GMT 39.783463 -81.363907 35,000 109 474 0
2021-04-26 12:11:11 GMT 39.785637 -81.371948 35,000 110 475 0
2021-04-26 12:11:06 GMT 39.789642 -81.386421 35,000 110 475 0
2021-04-26 12:11:02 GMT 39.792107 -81.395264 35,000 110 475 0
2021-04-26 12:10:57 GMT 39.796051 -81.408875 35,000 111 477 0
2021-04-26 12:10:53 GMT 39.799210 -81.419556 35,000 111 476 0
2021-04-26 12:10:50 GMT 39.801514 -81.427307 35,000 111 477 0
2021-04-26 12:10:46 GMT 39.804337 -81.436638 35,000 111 477 0
2021-04-26 12:10:43 GMT 39.807632 -81.447266 35,000 111 477 0
2021-04-26 12:10:39 GMT 39.810963 -81.458252 35,000 111 477 0
2021-04-26 12:10:35 GMT 39.814312 -81.469116 35,000 111 477 0
2021-04-26 12:10:32 GMT 39.815895 -81.474182 35,000 111 477 0
2021-04-26 12:10:29 GMT 39.818272 -81.481873 35,000 111 477 0
2021-04-26 12:10:24 GMT 39.822784 -81.496643 35,000 111 477 64
2021-04-26 12:10:21 GMT 39.825439 -81.505310 35,000 111 477 0
2021-04-26 12:10:17 GMT 39.829193 -81.517601 35,000 111 477 0
2021-04-26 12:10:13 GMT 39.831352 -81.524597 35,000 111 478 0
2021-04-26 12:10:10 GMT 39.834003 -81.533142 35,000 111 478 0
2021-04-26 12:10:06 GMT 39.837265 -81.543762 35,000 111 478 -64
2021-04-26 12:10:03 GMT 39.839996 -81.552650 35,000 111 478 -64
2021-04-26 12:10:00 GMT 39.842480 -81.560852 35,000 111 478 -64
2021-04-26 12:09:56 GMT 39.845581 -81.571037 35,000 110 478 64
2021-04-26 12:09:52 GMT 39.848251 -81.580261 35,000 109 476 64
2021-04-26 12:09:49 GMT 39.851231 -81.591248 35,000 107 475 0
2021-04-26 12:09:46 GMT 39.853416 -81.599915 35,000 106 474 0
2021-04-26 12:09:41 GMT 39.856430 -81.613434 35,000 104 473 64
2021-04-26 12:09:35 GMT 39.859329 -81.628418 35,000 102 470 64
2021-04-26 12:09:32 GMT 39.860550 -81.635643 35,000 101 470 0
2021-04-26 12:09:28 GMT 39.862289 -81.647644 35,000 99 468 -64
2021-04-26 12:09:24 GMT 39.863708 -81.658867 35,000 98 466 0
2021-04-26 12:09:21 GMT 39.864395 -81.665558 35,000 97 465 64
2021-04-26 12:09:18 GMT 39.865128 -81.674332 35,000 94 463 64
2021-04-26 12:09:15 GMT 39.865799 -81.685974 35,000 92 461 0
2021-04-26 12:09:12 GMT 39.866032 -81.693787 35,000 90 459 -64
2021-04-26 12:09:08 GMT 39.866081 -81.704773 35,000 89 458 -64
2021-04-26 12:09:04 GMT 39.866089 -81.715294 35,000 89 458 0
2021-04-26 12:09:01 GMT 39.866032 -81.722412 35,000 89 458 0
2021-04-26 12:08:57 GMT 39.866043 -81.732910 35,000 89 458 0
2021-04-26 12:08:54 GMT 39.865997 -81.741508 35,000 89 458 0
2021-04-26 12:08:50 GMT 39.865940 -81.749939 35,000 89 458 0
2021-04-26 12:08:47 GMT 39.865940 -81.758606 35,000 89 458 0
2021-04-26 12:08:44 GMT 39.865849 -81.770752 35,000 89 458 0
2021-04-26 12:08:40 GMT 39.865849 -81.780762 35,000 89 458 0
2021-04-26 12:08:36 GMT 39.865814 -81.790047 35,000 89 458 0
2021-04-26 12:08:33 GMT 39.865753 -81.799500 35,000 89 458 0
2021-04-26 12:08:29 GMT 39.865723 -81.809990 35,000 89 458 0
2021-04-26 12:08:26 GMT 39.865662 -81.820374 35,000 89 458 0
2021-04-26 12:08:21 GMT 39.865616 -81.831299 35,000 89 459 0
2021-04-26 12:08:18 GMT 39.865566 -81.842346 35,000 89 458 64
2021-04-26 12:08:15 GMT 39.865520 -81.847839 35,000 89 458 0
2021-04-26 12:08:12 GMT 39.865475 -81.859009 35,000 89 458 0
2021-04-26 12:08:08 GMT 39.865475 -81.868958 35,000 89 458 0
2021-04-26 12:08:05 GMT 39.865429 -81.874451 35,000 89 457 0
2021-04-26 12:08:02 GMT 39.865379 -81.885437 35,000 89 458 0
2021-04-26 12:07:58 GMT 39.865356 -81.893700 35,000 89 458 0
2021-04-26 12:07:55 GMT 39.865311 -81.903374 35,000 89 457 0
2021-04-26 12:07:51 GMT 39.865242 -81.914062 35,000 89 457 0
2021-04-26 12:07:47 GMT 39.865196 -81.925049 35,000 89 457 0
2021-04-26 12:07:44 GMT 39.865173 -81.931976 35,000 89 457 0
2021-04-26 12:07:41 GMT 39.865128 -81.940994 35,000 89 457 0
2021-04-26 12:07:36 GMT 39.865009 -81.962402 35,000 89 458 0
2021-04-26 12:07:33 GMT 39.865009 -81.962402 35,000 89 457 0
2021-04-26 12:07:30 GMT 39.864944 -81.971741 35,000 89 457 0
2021-04-26 12:07:27 GMT 39.864899 -81.978310 35,000 89 457 0
2021-04-26 12:07:24 GMT 39.864822 -81.990967 35,000 89 457 0
2021-04-26 12:07:20 GMT 39.864807 -81.998131 35,000 89 457 0
2021-04-26 12:07:17 GMT 39.864731 -82.009705 35,000 89 457 0
2021-04-26 12:07:13 GMT 39.864716 -82.016823 35,000 89 458 0
2021-04-26 12:07:10 GMT 39.864624 -82.027565 35,000 89 458 0
2021-04-26 12:07:07 GMT 39.864578 -82.035332 35,000 89 458 0
2021-04-26 12:07:03 GMT 39.864487 -82.046677 35,000 89 458 -64
2021-04-26 12:06:59 GMT 39.864441 -82.055573 35,000 89 458 -64
2021-04-26 12:06:56 GMT 39.864403 -82.063721 35,000 89 459 0
2021-04-26 12:06:53 GMT 39.864311 -82.074707 35,000 89 458 -64
2021-04-26 12:06:50 GMT 39.864258 -82.083038 35,000 89 458 0
2021-04-26 12:06:46 GMT 39.864212 -82.094025 35,000 89 458 64
2021-04-26 12:06:42 GMT 39.864120 -82.103760 35,000 89 458 64
2021-04-26 12:06:39 GMT 39.864075 -82.112770 35,000 89 459 -64
2021-04-26 12:06:36 GMT 39.864033 -82.120850 35,000 89 458 0
2021-04-26 12:06:32 GMT 39.863983 -82.129822 35,000 89 459 -64
2021-04-26 12:06:29 GMT 39.863892 -82.142326 35,000 89 459 0
2021-04-26 12:06:26 GMT 39.863846 -82.149071 35,000 89 459 0
2021-04-26 12:06:22 GMT 39.863750 -82.160767 35,000 89 459 0
2021-04-26 12:06:19 GMT 39.863663 -82.169014 35,000 89 459 64
2021-04-26 12:06:15 GMT 39.863613 -82.178223 35,000 89 459 64
2021-04-26 12:06:11 GMT 39.863567 -82.189148 35,000 89 459 -64
2021-04-26 12:06:08 GMT 39.863472 -82.198181 35,000 89 459 -64
2021-04-26 12:06:04 GMT 39.863426 -82.207031 35,000 89 459 0
2021-04-26 12:06:01 GMT 39.863342 -82.218399 35,000 89 459 0
2021-04-26 12:05:57 GMT 39.863251 -82.226097 35,000 89 459 0
2021-04-26 12:05:53 GMT 39.863148 -82.241028 35,000 89 459 0
2021-04-26 12:05:50 GMT 39.863113 -82.249268 35,000 89 459 0
2021-04-26 12:05:47 GMT 39.863068 -82.256134 35,000 89 459 0
2021-04-26 12:05:44 GMT 39.862976 -82.263893 35,000 89 459 0
2021-04-26 12:05:41 GMT 39.862930 -82.272728 35,000 89 459 0
2021-04-26 12:05:37 GMT 39.862839 -82.282639 35,000 89 459 0
2021-04-26 12:05:34 GMT 39.862774 -82.292053 35,000 89 460 0
2021-04-26 12:05:29 GMT 39.862656 -82.305870 35,000 89 460 0
2021-04-26 12:05:25 GMT 39.862564 -82.314766 35,000 89 460 0
2021-04-26 12:05:21 GMT 39.862450 -82.328735 35,000 89 460 0
2021-04-26 12:05:18 GMT 39.862354 -82.335449 35,000 89 460 0
2021-04-26 12:05:15 GMT 39.862263 -82.345459 35,000 89 460 0
2021-04-26 12:05:11 GMT 39.862167 -82.355225 35,000 89 460 0
2021-04-26 12:05:08 GMT 39.862106 -82.364799 35,000 89 460 0
2021-04-26 12:05:04 GMT 39.862030 -82.372009 35,000 89 460 0
2021-04-26 12:05:01 GMT 39.861935 -82.382324 35,000 89 460 0
2021-04-26 12:04:58 GMT 39.861843 -82.392334 35,000 89 460 64
2021-04-26 12:04:55 GMT 39.861786 -82.400566 35,000 89 460 64
2021-04-26 12:04:50 GMT 39.861694 -82.415077 35,000 89 460 0
2021-04-26 12:04:46 GMT 39.861565 -82.426697 35,000 89 460 -64
2021-04-26 12:04:43 GMT 39.861511 -82.431557 35,000 89 460 -64
2021-04-26 12:04:39 GMT 39.861374 -82.446060 35,000 89 460 -64
2021-04-26 12:04:34 GMT 39.861191 -82.462425 35,000 89 460 0
2021-04-26 12:04:30 GMT 39.861145 -82.469292 35,000 89 459 64
2021-04-26 12:04:27 GMT 39.861053 -82.475922 35,000 89 458 64
2021-04-26 12:04:24 GMT 39.861004 -82.483948 35,000 89 459 64
2021-04-26 12:04:21 GMT 39.860870 -82.493294 35,000 89 458 64
2021-04-26 12:04:17 GMT 39.860779 -82.503204 35,000 89 458 64
2021-04-26 12:04:14 GMT 39.860725 -82.510620 35,000 89 458 64
2021-04-26 12:04:11 GMT 39.860584 -82.522705 35,000 89 458 0
2021-04-26 12:04:08 GMT 39.860504 -82.530907 35,000 89 458 0
2021-04-26 12:04:04 GMT 39.860367 -82.539803 35,000 89 457 64
2021-04-26 12:04:00 GMT 39.860275 -82.550789 35,000 89 457 64
2021-04-26 12:03:57 GMT 39.860184 -82.558670 35,000 89 457 64
2021-04-26 12:03:54 GMT 39.860092 -82.568642 35,000 89 457 64
2021-04-26 12:03:51 GMT 39.860001 -82.575272 35,000 89 458 64
2021-04-26 12:03:48 GMT 39.859886 -82.586731 35,000 89 458 64
2021-04-26 12:03:45 GMT 39.859840 -82.591064 35,000 89 459 64
2021-04-26 12:03:42 GMT 39.859726 -82.602859 35,000 89 461 0
2021-04-26 12:03:39 GMT 39.859634 -82.608414 35,000 89 461 0
2021-04-26 12:03:36 GMT 39.859543 -82.618500 35,000 89 463 -64
2021-04-26 12:03:29 GMT 39.859329 -82.635681 35,000 89 473 -64
2021-04-26 12:03:26 GMT 39.859238 -82.644653 35,000 89 469 -64
2021-04-26 12:03:23 GMT 39.859142 -82.653992 35,000 89 471 -64
2021-04-26 12:03:19 GMT 39.859039 -82.665733 35,000 89 473 -64
2021-04-26 12:03:15 GMT 39.858902 -82.676117 35,000 89 475 -64
2021-04-26 12:03:12 GMT 39.858864 -82.682556 35,000 89 477 0
2021-04-26 12:03:09 GMT 39.858723 -82.694031 35,000 89 479 0
2021-04-26 12:03:04 GMT 39.858585 -82.705444 35,000 89 481 0
2021-04-26 12:03:01 GMT 39.858490 -82.716545 35,000 89 484 -64
2021-04-26 12:02:58 GMT 39.858398 -82.724060 35,000 89 485 -64
2021-04-26 12:02:55 GMT 39.858307 -82.732780 35,000 89 486 -64
2021-04-26 12:02:52 GMT 39.858170 -82.743294 35,000 89 486 0
2021-04-26 12:02:48 GMT 39.858032 -82.756126 35,000 89 486 0
2021-04-26 12:02:44 GMT 39.857700 -82.782288 35,000 89 486 64
2021-04-26 12:02:39 GMT 39.857700 -82.782288 35,000 89 486 64
2021-04-26 12:02:36 GMT 39.857609 -82.788025 35,000 89 486 0
2021-04-26 12:02:33 GMT 39.857483 -82.797028 35,000 89 486 0
2021-04-26 12:02:30 GMT 39.857235 -82.816284 35,000 89 486 -64
2021-04-26 12:02:27 GMT 39.857235 -82.816284 35,000 88 485 0
2021-04-26 12:02:24 GMT 39.857143 -82.823303 35,000 88 485 64
2021-04-26 12:02:21 GMT 39.857002 -82.834961 35,000 88 485 0
2021-04-26 12:02:16 GMT 39.856842 -82.845993 35,000 89 485 0
2021-04-26 12:02:13 GMT 39.856724 -82.855896 35,000 89 485 0
2021-04-26 12:02:09 GMT 39.856583 -82.866455 35,000 89 485 -64
2021-04-26 12:02:05 GMT 39.856430 -82.879845 35,000 89 485 0
2021-04-26 12:02:02 GMT 39.856293 -82.889160 35,000 88 485 0
2021-04-26 12:01:59 GMT 39.856201 -82.895966 35,000 89 485 0
2021-04-26 12:01:56 GMT 39.856064 -82.907791 35,000 88 485 0
2021-04-26 12:01:53 GMT 39.855972 -82.915016 35,000 89 485 0
2021-04-26 12:01:50 GMT 39.855839 -82.922668 35,000 89 485 0
2021-04-26 12:01:47 GMT 39.855698 -82.933762 35,000 89 485 -64
2021-04-26 12:01:44 GMT 39.855606 -82.941284 35,000 89 486 0
2021-04-26 12:01:41 GMT 39.855469 -82.950005 35,000 88 486 0
2021-04-26 12:01:38 GMT 39.855373 -82.958801 35,000 88 486 0
2021-04-26 12:01:34 GMT 39.855232 -82.968201 35,000 88 486 0
2021-04-26 12:01:31 GMT 39.855057 -82.980453 35,000 88 486 -64
2021-04-26 12:01:28 GMT 39.854954 -82.987976 35,000 88 485 0
2021-04-26 12:01:23 GMT 39.854782 -83.002365 35,000 88 484 -64
2021-04-26 12:01:20 GMT 39.854645 -83.010727 35,000 88 482 64
2021-04-26 12:01:17 GMT 39.854534 -83.018188 35,000 88 482 64
2021-04-26 12:01:14 GMT 39.854416 -83.028099 35,000 88 481 64
2021-04-26 12:01:11 GMT 39.854279 -83.037292 35,000 88 480 0
2021-04-26 12:01:08 GMT 39.853928 -83.058594 35,000 88 475 0
2021-04-26 12:01:04 GMT 39.853928 -83.058594 35,000 88 477 -64
2021-04-26 12:01:01 GMT 39.853821 -83.067207 35,000 88 476 0
2021-04-26 12:00:57 GMT 39.853699 -83.075806 35,000 88 475 0
2021-04-26 12:00:54 GMT 39.853546 -83.085480 35,000 88 474 0
2021-04-26 12:00:50 GMT 39.853371 -83.096375 35,000 88 473 0
2021-04-26 12:00:46 GMT 39.853184 -83.109985 35,000 88 471 64
2021-04-26 12:00:42 GMT 39.853043 -83.118202 35,000 88 467 -64
2021-04-26 12:00:39 GMT 39.852859 -83.129723 35,000 88 469 -64
2021-04-26 12:00:35 GMT 39.852676 -83.139877 35,000 88 467 -64
2021-04-26 12:00:32 GMT 39.852531 -83.149414 35,000 88 466 64
2021-04-26 12:00:28 GMT 39.852348 -83.160645 35,000 88 463 640
2021-04-26 12:00:25 GMT 39.852207 -83.168457 35,000 88 464 384
2021-04-26 12:00:20 GMT 39.852066 -83.178467 34,950 88 463 832
2021-04-26 12:00:16 GMT 39.851879 -83.190918 34,625 88 464 768
2021-04-26 12:00:13 GMT 39.851715 -83.201553 34,800 88 464 896
2021-04-26 12:00:10 GMT 39.851578 -83.210449 34,775 88 464 832
2021-04-26 12:00:06 GMT 39.851418 -83.218811 34,750 88 464 768
2021-04-26 12:00:03 GMT 39.851303 -83.227104 34,700 88 464 768
2021-04-26 11:59:59 GMT 39.851074 -83.240303 34,650 88 464 704
2021-04-26 11:59:55 GMT 39.850891 -83.251526 34,600 88 464 704
2021-04-26 11:59:52 GMT 39.850708 -83.260605 34,575 88 463 640
2021-04-26 11:59:48 GMT 39.850571 -83.269501 34,500 88 463 704
2021-04-26 11:59:44 GMT 39.850342 -83.282875 34,475 88 463 704
2021-04-26 11:59:41 GMT 39.850250 -83.289322 34,450 88 462 704
2021-04-26 11:59:37 GMT 39.850113 -83.299294 34,425 88 462 704
2021-04-26 11:59:34 GMT 39.849972 -83.306763 34,375 88 462 768
2021-04-26 11:59:31 GMT 39.849739 -83.318970 34,325 88 462 896
2021-04-26 11:59:28 GMT 39.849602 -83.327820 34,275 88 462 960
2021-04-26 11:59:24 GMT 39.849506 -83.334412 34,125 88 462 1088
2021-04-26 11:59:21 GMT 39.849319 -83.345581 34,175 88 462 1088
2021-04-26 11:59:18 GMT 39.849182 -83.350952 34,100 88 462 1088
2021-04-26 11:59:15 GMT 39.848995 -83.362183 34,025 88 463 1088
2021-04-26 11:59:12 GMT 39.848904 -83.368591 33,975 88 463 1088
2021-04-26 11:59:08 GMT 39.848648 -83.381630 33,925 88 463 1088
2021-04-26 11:59:04 GMT 39.848511 -83.391663 33,825 88 463 1088
2021-04-26 11:59:01 GMT 39.848297 -83.403381 33,775 88 464 1088
2021-04-26 11:58:58 GMT 39.848202 -83.407837 33,725 88 464 1088
2021-04-26 11:58:55 GMT 39.848019 -83.418945 33,650 88 464 1024
2021-04-26 11:58:52 GMT 39.847916 -83.425934 33,625 88 464 1024
2021-04-26 11:58:49 GMT 39.847736 -83.433472 33,600 88 464 1024
2021-04-26 11:58:46 GMT 39.847641 -83.440742 33,550 88 464 1024
2021-04-26 11:58:43 GMT 39.847504 -83.448624 33,300 88 464 1024
2021-04-26 11:58:40 GMT 39.847321 -83.458252 33,450 88 464 1024
2021-04-26 11:58:37 GMT 39.847088 -83.469482 33,350 88 464 1088
2021-04-26 11:58:33 GMT 39.847000 -83.476631 33,325 88 464 1088
2021-04-26 11:58:30 GMT 39.846863 -83.484512 33,250 88 464 1088
2021-04-26 11:58:27 GMT 39.846634 -83.495796 33,200 88 465 1024
2021-04-26 11:58:24 GMT 39.846481 -83.504150 33,175 88 465 1024
2021-04-26 11:58:22 GMT 39.846340 -83.510742 33,125 88 465 1088
2021-04-26 11:58:18 GMT 39.846130 -83.521469 32,875 88 465 1024
2021-04-26 11:58:15 GMT 39.845993 -83.529289 33,025 88 465 960
2021-04-26 11:58:11 GMT 39.845810 -83.539322 32,925 88 465 960
2021-04-26 11:58:07 GMT 39.845551 -83.553284 32,875 88 465 960
2021-04-26 11:58:03 GMT 39.845398 -83.562790 32,825 88 465 960
2021-04-26 11:57:59 GMT 39.845177 -83.572266 32,750 88 465 1024
2021-04-26 11:57:56 GMT 39.845032 -83.580643 32,700 88 464 1024
2021-04-26 11:57:53 GMT 39.844849 -83.590431 32,650 88 464 960
2021-04-26 11:57:50 GMT 39.844666 -83.600525 32,600 88 464 960
2021-04-26 11:57:45 GMT 39.844387 -83.613525 32,500 88 464 960
2021-04-26 11:57:41 GMT 39.844246 -83.621338 32,500 88 464 960
2021-04-26 11:57:39 GMT 39.844109 -83.628052 32,250 88 463 1024
2021-04-26 11:57:36 GMT 39.843922 -83.639221 32,400 88 464 960
2021-04-26 11:57:33 GMT 39.843781 -83.644775 32,325 88 463 1024
2021-04-26 11:57:30 GMT 39.843639 -83.652832 32,300 88 463 1024
2021-04-26 11:57:26 GMT 39.843384 -83.666618 32,225 88 463 1152
2021-04-26 11:57:22 GMT 39.843269 -83.674011 32,150 88 464 1152
2021-04-26 11:57:19 GMT 39.843018 -83.686859 32,075 88 464 1152
2021-04-26 11:57:13 GMT 39.842743 -83.703339 31,975 88 464 1152
2021-04-26 11:57:09 GMT 39.842606 -83.710152 31,925 88 464 1152
2021-04-26 11:57:05 GMT 39.842331 -83.725853 31,800 88 464 1152
2021-04-26 11:57:02 GMT 39.842239 -83.730331 31,725 88 464 1152
2021-04-26 11:56:58 GMT 39.841965 -83.745178 31,675 88 464 1152
2021-04-26 11:56:53 GMT 39.841640 -83.758667 31,575 88 464 1152
2021-04-26 11:56:49 GMT 39.841408 -83.767578 31,525 88 464 1152
2021-04-26 11:56:45 GMT 39.841232 -83.778038 31,075 91 467 832
2021-04-26 11:56:42 GMT 39.841175 -83.789978 31,375 90 466 1024
2021-04-26 11:56:37 GMT 39.841232 -83.801743 31,075 91 467 832
2021-04-26 11:56:34 GMT 39.841461 -83.812729 31,250 92 467 832
2021-04-26 11:56:31 GMT 39.841644 -83.818398 31,225 92 466 832
2021-04-26 11:56:28 GMT 39.841873 -83.825325 31,200 92 466 832
2021-04-26 11:56:22 GMT 39.842804 -83.844971 31,050 94 467 896
2021-04-26 11:56:19 GMT 39.843338 -83.853333 31,050 95 467 960
2021-04-26 11:56:16 GMT 39.843842 -83.860077 31,025 96 467 960
2021-04-26 11:56:12 GMT 39.844803 -83.871361 30,950 97 468 896
2021-04-26 11:56:10 GMT 39.845398 -83.876976 30,925 98 468 896
2021-04-26 11:56:06 GMT 39.846817 -83.889214 30,850 99 469 832
2021-04-26 11:56:01 GMT 39.849701 -83.910294 30,775 100 468 832
2021-04-26 11:55:58 GMT 39.849701 -83.910294 30,750 100 468 832
2021-04-26 11:55:55 GMT 39.850754 -83.918114 30,700 100 467 832
2021-04-26 11:55:52 GMT 39.852066 -83.927612 30,650 100 467 832
2021-04-26 11:55:50 GMT 39.852859 -83.933167 30,650 100 466 832
2021-04-26 11:55:47 GMT 39.854187 -83.942535 30,600 100 464 896
2021-04-26 11:55:44 GMT 39.854782 -83.946831 30,525 100 465 896
2021-04-26 11:55:41 GMT 39.856064 -83.955788 30,525 100 465 896
2021-04-26 11:55:39 GMT 39.857300 -83.964508 30,475 100 464 896
2021-04-26 11:55:35 GMT 39.858810 -83.975548 30,425 100 464 896
2021-04-26 11:55:31 GMT 39.860367 -83.986481 30,350 100 463 960
2021-04-26 11:55:27 GMT 39.861694 -83.996391 30,300 100 463 960
2021-04-26 11:55:24 GMT 39.862820 -84.004333 30,100 99 460 1216
2021-04-26 11:55:20 GMT 39.863983 -84.012810 30,200 100 462 1024
2021-04-26 11:55:17 GMT 39.865379 -84.023193 30,150 99 460 1088
2021-04-26 11:55:13 GMT 39.866638 -84.032455 30,050 99 460 1216
2021-04-26 11:55:10 GMT 39.868130 -84.043762 30,000 99 460 1280
2021-04-26 11:55:07 GMT 39.869339 -84.052673 29,925 99 460 1280
2021-04-26 11:55:03 GMT 39.870457 -84.061279 29,850 99 460 1280
2021-04-26 11:54:59 GMT 39.871536 -84.069649 29,800 99 460 1280
2021-04-26 11:54:56 GMT 39.872955 -84.080521 29,700 99 460 1344
2021-04-26 11:54:51 GMT 39.874737 -84.094177 29,600 99 460 1408
2021-04-26 11:54:46 GMT 39.876553 -84.108582 29,475 99 459 1408
2021-04-26 11:54:43 GMT 39.877529 -84.116272 29,400 99 459 1344
2021-04-26 11:54:40 GMT 39.878265 -84.122078 29,350 99 459 1344
2021-04-26 11:54:38 GMT 39.879162 -84.129395 29,275 99 459 1280
2021-04-26 11:54:35 GMT 39.880188 -84.137482 29,250 99 459 1280
2021-04-26 11:54:30 GMT 39.881813 -84.150208 29,150 99 459 1216
2021-04-26 11:54:27 GMT 39.882977 -84.159851 29,075 99 458 1216
2021-04-26 11:54:24 GMT 39.883675 -84.165466 29,025 99 458 1216
2021-04-26 11:54:21 GMT 39.884857 -84.174736 28,925 99 458 1152
2021-04-26 11:54:18 GMT 39.886143 -84.185059 28,875 99 457 1088
2021-04-26 11:54:15 GMT 39.887074 -84.192688 28,850 99 457 1088
2021-04-26 11:54:09 GMT 39.888885 -84.207336 28,750 99 456 1088
2021-04-26 11:54:04 GMT 39.890579 -84.221191 28,675 99 455 1024
2021-04-26 11:53:59 GMT 39.892365 -84.235519 28,575 99 454 1088
2021-04-26 11:53:56 GMT 39.893417 -84.243942 28,525 99 454 1152
2021-04-26 11:53:53 GMT 39.894337 -84.251160 28,475 99 453 1152
2021-04-26 11:53:48 GMT 39.895824 -84.263184 28,400 99 453 1152
2021-04-26 11:53:44 GMT 39.897629 -84.277855 28,275 99 452 1152
2021-04-26 11:53:38 GMT 39.899178 -84.290222 28,200 99 452 1152
2021-04-26 11:53:33 GMT 39.901039 -84.305115 28,075 98 451 1216
2021-04-26 11:53:28 GMT 39.902576 -84.318176 27,975 98 451 1216
2021-04-26 11:53:23 GMT 39.904175 -84.332726 27,875 96 448 1152
2021-04-26 11:53:20 GMT 39.904816 -84.339294 27,825 91 444 1088
2021-04-26 11:53:17 GMT 39.905369 -84.346375 27,800 95 448 1152
2021-04-26 11:53:13 GMT 39.906235 -84.360970 27,650 92 445 1152
2021-04-26 11:53:07 GMT 39.906582 -84.374268 27,550 90 443 1088
2021-04-26 11:53:04 GMT 39.906647 -84.383362 27,525 90 443 1088
2021-04-26 11:53:01 GMT 39.906647 -84.388672 27,475 90 442 1088
2021-04-26 11:52:58 GMT 39.906673 -84.398804 27,425 90 442 1024
2021-04-26 11:52:53 GMT 39.906719 -84.411560 27,325 90 440 1088
2021-04-26 11:52:50 GMT 39.906738 -84.420555 27,250 90 440 1088
2021-04-26 11:52:47 GMT 39.906765 -84.429565 27,200 90 439 1088
2021-04-26 11:52:43 GMT 39.906765 -84.437866 27,100 90 438 1152
2021-04-26 11:52:39 GMT 39.906784 -84.448082 27,075 90 438 1152
2021-04-26 11:52:36 GMT 39.906815 -84.457031 27,050 90 438 1216
2021-04-26 11:52:33 GMT 39.906830 -84.466057 26,950 90 437 1280
2021-04-26 11:52:26 GMT 39.906860 -84.482544 26,800 90 437 1216
2021-04-26 11:52:23 GMT 39.906906 -84.492065 26,750 90 436 1216
2021-04-26 11:52:20 GMT 39.906906 -84.498169 26,700 90 436 1216
2021-04-26 11:52:16 GMT 39.906952 -84.511780 26,575 90 435 1216
2021-04-26 11:52:10 GMT 39.906967 -84.527199 26,525 90 434 1152
2021-04-26 11:52:05 GMT 39.906967 -84.537704 26,400 90 433 1152
2021-04-26 11:52:00 GMT 39.906998 -84.550598 26,250 90 432 1152
2021-04-26 11:51:57 GMT 39.907013 -84.558601 26,250 90 432 1088
2021-04-26 11:51:54 GMT 39.906998 -84.564453 26,200 90 431 1088
2021-04-26 11:51:49 GMT 39.907013 -84.577408 26,125 90 430 1088
2021-04-26 11:51:45 GMT 39.906998 -84.591370 26,025 90 429 1088
2021-04-26 11:51:40 GMT 39.906998 -84.603760 25,925 90 428 1088
2021-04-26 11:51:36 GMT 39.906998 -84.614929 25,850 90 427 1088
2021-04-26 11:51:33 GMT 39.907013 -84.618668 25,825 90 427 1152
2021-04-26 11:51:30 GMT 39.906967 -84.629951 25,750 89 426 1408
2021-04-26 11:51:26 GMT 39.906998 -84.637634 25,675 89 426 1472
2021-04-26 11:51:24 GMT 39.906952 -84.643738 25,600 89 426 1536
2021-04-26 11:51:18 GMT 39.906967 -84.658615 25,350 89 426 1600
2021-04-26 11:51:14 GMT 39.906921 -84.670792 25,350 89 426 1408
2021-04-26 11:51:10 GMT 39.906906 -84.681519 25,250 89 426 1344
2021-04-26 11:51:06 GMT 39.906860 -84.692017 25,150 89 426 1344
2021-04-26 11:51:02 GMT 39.906815 -84.698181 25,100 89 426 1344
2021-04-26 11:50:58 GMT 39.906784 -84.709961 25,000 89 425 1280
2021-04-26 11:50:54 GMT 39.906738 -84.724052 24,925 90 425 1280
2021-04-26 11:50:52 GMT 39.906738 -84.724052 24,900 90 425 1280
2021-04-26 11:50:49 GMT 39.906784 -84.735695 24,800 90 424 1280
2021-04-26 11:50:45 GMT 39.906815 -84.744507 24,700 90 424 1280
2021-04-26 11:50:42 GMT 39.906815 -84.750671 24,675 89 424 1280
2021-04-26 11:50:37 GMT 39.906738 -84.763344 24,575 89 423 1216
2021-04-26 11:50:34 GMT 39.906628 -84.773193 24,500 89 422 1088
2021-04-26 11:50:31 GMT 39.906582 -84.778259 24,475 88 421 1088
2021-04-26 11:50:27 GMT 39.906418 -84.789673 24,375 88 420 1024
2021-04-26 11:50:24 GMT 39.906254 -84.798523 24,325 88 419 1024
2021-04-26 11:50:21 GMT 39.906067 -84.805542 24,275 87 418 960
2021-04-26 11:50:16 GMT 39.905697 -84.818604 24,200 87 416 896
2021-04-26 11:50:13 GMT 39.905602 -84.822571 24,175 87 416 896
2021-04-26 11:50:11 GMT 39.905369 -84.828613 24,150 86 414 832
2021-04-26 11:50:06 GMT 39.904812 -84.841370 24,075 86 412 1024
2021-04-26 11:50:03 GMT 39.904346 -84.850403 24,000 86 411 1152
2021-04-26 11:50:00 GMT 39.904129 -84.854874 23,975 86 410 1152
2021-04-26 11:49:57 GMT 39.903625 -84.863770 23,900 86 409 1280
2021-04-26 11:49:54 GMT 39.903214 -84.871651 23,850 86 409 1280
2021-04-26 11:49:51 GMT 39.902763 -84.880127 23,775 86 409 1280
2021-04-26 11:49:45 GMT 39.902023 -84.894341 23,650 86 407 1408
2021-04-26 11:49:40 GMT 39.901474 -84.905212 23,550 86 407 1408
2021-04-26 11:49:35 GMT 39.900761 -84.918518 23,425 86 406 1408
2021-04-26 11:49:32 GMT 39.900295 -84.927490 23,325 86 406 1472
2021-04-26 11:49:29 GMT 39.900017 -84.932434 22,125 86 406 1472
2021-04-26 11:49:25 GMT 39.899506 -84.942200 23,175 86 406 1472
2021-04-26 11:49:22 GMT 39.899132 -84.949097 23,100 86 405 1472
2021-04-26 11:49:19 GMT 39.898621 -84.959045 23,025 86 405 1408
2021-04-26 11:49:15 GMT 39.898041 -84.969337 22,900 86 404 1472
2021-04-26 11:49:10 GMT 39.897446 -84.980743 22,800 86 404 1536
2021-04-26 11:49:07 GMT 39.897270 -84.984131 22,750 86 404 1536
2021-04-26 11:49:05 GMT 39.896152 -85.004700 22,600 86 403 1472
2021-04-26 11:49:00 GMT 39.896152 -85.004700 22,550 86 403 1472
2021-04-26 11:48:57 GMT 39.895889 -85.010056 22,500 86 402 1408
2021-04-26 11:48:52 GMT 39.895176 -85.023071 22,375 86 402 1408
2021-04-26 11:48:47 GMT 39.894569 -85.033752 22,275 86 401 1472
2021-04-26 11:48:45 GMT 39.894241 -85.039970 22,200 85 400 1472
2021-04-26 11:48:41 GMT 39.893829 -85.047554 21,925 85 400 1536
2021-04-26 11:48:38 GMT 39.893452 -85.054871 22,000 85 398 1792
2021-04-26 11:48:35 GMT 39.892914 -85.065231 21,950 85 399 1600
2021-04-26 11:48:32 GMT 39.892593 -85.070839 21,875 85 399 1600
2021-04-26 11:48:29 GMT 39.892151 -85.078979 21,775 85 399 1728
2021-04-26 11:48:25 GMT 39.891769 -85.086189 21,725 85 398 1728
2021-04-26 11:48:22 GMT 39.891266 -85.095398 21,575 85 398 1792
2021-04-26 11:48:19 GMT 39.890938 -85.101257 21,475 85 399 1856
2021-04-26 11:48:16 GMT 39.890381 -85.110718 21,400 85 400 1920
2021-04-26 11:48:13 GMT 39.889984 -85.117889 21,300 85 400 1920
2021-04-26 11:48:10 GMT 39.889820 -85.121216 21,250 85 400 1920
2021-04-26 11:48:06 GMT 39.889168 -85.132690 21,075 85 400 1728
2021-04-26 11:48:03 GMT 39.888748 -85.140099 21,025 85 400 1664
2021-04-26 11:48:00 GMT 39.888474 -85.145653 20,950 85 400 1600
2021-04-26 11:47:57 GMT 39.887833 -85.156464 20,850 85 399 1408
2021-04-26 11:47:54 GMT 39.886963 -85.171509 20,775 85 398 1408
2021-04-26 11:47:51 GMT 39.886963 -85.171509 20,700 85 397 1408
2021-04-26 11:47:47 GMT 39.886562 -85.178650 20,600 85 397 1472
2021-04-26 11:47:44 GMT 39.886143 -85.185547 20,500 85 395 1664
2021-04-26 11:47:41 GMT 39.885632 -85.194885 20,450 85 396 1856
2021-04-26 11:47:37 GMT 39.885132 -85.204048 20,325 85 395 1984
2021-04-26 11:47:33 GMT 39.884605 -85.212219 20,200 85 395 2112
2021-04-26 11:47:30 GMT 39.884125 -85.219215 20,100 84 395 2112
2021-04-26 11:47:26 GMT 39.883350 -85.229431 19,950 83 396 2112
2021-04-26 11:47:22 GMT 39.882793 -85.235962 19,850 83 395 2048
2021-04-26 11:47:19 GMT 39.882065 -85.244118 19,725 83 395 2048
2021-04-26 11:47:15 GMT 39.881302 -85.252197 19,600 82 396 1920
2021-04-26 11:47:12 GMT 39.880417 -85.260681 19,450 82 395 1792
2021-04-26 11:47:09 GMT 39.879593 -85.268532 19,425 81 395 1600
2021-04-26 11:47:05 GMT 39.878181 -85.280457 19,300 80 393 1408
2021-04-26 11:47:01 GMT 39.877625 -85.285095 19,250 80 393 1280
2021-04-26 11:46:59 GMT 39.876663 -85.292175 19,200 79 392 1216
2021-04-26 11:46:51 GMT 39.874367 -85.308411 19,025 79 388 1152
2021-04-26 11:46:48 GMT 39.873276 -85.316422 19,000 79 387 1152
2021-04-26 11:46:44 GMT 39.872131 -85.324600 18,900 79 385 1216
2021-04-26 11:46:41 GMT 39.871014 -85.332520 18,850 79 383 1280
2021-04-26 11:46:37 GMT 39.869934 -85.340240 18,800 79 382 1344
2021-04-26 11:46:34 GMT 39.868454 -85.350586 18,675 79 381 1472
2021-04-26 11:46:31 GMT 39.867802 -85.355225 18,625 79 380 1600
2021-04-26 11:46:28 GMT 39.866592 -85.363892 18,525 79 379 1664
2021-04-26 11:46:24 GMT 39.864216 -85.380493 18,400 79 378 1600
2021-04-26 11:46:21 GMT 39.864216 -85.380493 18,325 79 377 1664
2021-04-26 11:46:17 GMT 39.863380 -85.386719 18,250 79 377 1600
2021-04-26 11:46:12 GMT 39.861984 -85.396606 18,125 79 376 1600
2021-04-26 11:46:09 GMT 39.861053 -85.403061 18,050 79 375 1536
2021-04-26 11:46:06 GMT 39.860138 -85.409569 17,975 79 374 1536
2021-04-26 11:46:03 GMT 39.858765 -85.419182 17,875 79 372 1536
2021-04-26 11:45:58 GMT 39.857422 -85.428650 17,750 79 371 1536
2021-04-26 11:45:56 GMT 39.856815 -85.433044 17,725 79 371 1600
2021-04-26 11:45:51 GMT 39.855419 -85.442810 17,600 79 368 1600
2021-04-26 11:45:48 GMT 39.854279 -85.451126 17,500 79 367 1600
2021-04-26 11:45:45 GMT 39.853638 -85.455482 17,450 79 367 1664
2021-04-26 11:45:42 GMT 39.852264 -85.465096 17,325 79 366 1728
2021-04-26 11:45:38 GMT 39.851135 -85.473145 17,200 79 366 1856
2021-04-26 11:45:36 GMT 39.850391 -85.478577 17,125 79 365 1920
2021-04-26 11:45:31 GMT 39.849136 -85.487122 17,000 79 365 1984
2021-04-26 11:45:27 GMT 39.848053 -85.494652 16,875 79 364 2048
2021-04-26 11:45:23 GMT 39.846668 -85.504517 16,600 79 364 2048
2021-04-26 11:45:19 GMT 39.845455 -85.513184 16,600 79 364 1984
2021-04-26 11:45:16 GMT 39.844807 -85.517578 16,500 79 363 1920
2021-04-26 11:45:14 GMT 39.844059 -85.522766 16,400 79 363 1920
2021-04-26 11:45:11 GMT 39.842651 -85.532623 16,300 79 362 1984
2021-04-26 11:45:07 GMT 39.841553 -85.540329 16,175 79 362 2176
2021-04-26 11:45:03 GMT 39.840427 -85.548462 16,025 79 361 2240
2021-04-26 11:45:00 GMT 39.839630 -85.554001 15,950 79 361 2240
2021-04-26 11:44:57 GMT 39.838760 -85.559975 15,825 79 361 2240
2021-04-26 11:44:54 GMT 39.837868 -85.566406 15,725 79 361 2304
2021-04-26 11:44:49 GMT 39.836517 -85.575806 15,550 79 361 2368
2021-04-26 11:44:46 GMT 39.834595 -85.589111 15,375 79 361 2432
2021-04-26 11:44:43 GMT 39.834595 -85.589111 15,300 79 362 2432
2021-04-26 11:44:40 GMT 39.833405 -85.597527 15,150 79 362 2368
2021-04-26 11:44:36 GMT 39.832329 -85.605042 15,000 79 362 2176
2021-04-26 11:44:34 GMT 39.831436 -85.611382 14,900 79 362 2240
2021-04-26 11:44:30 GMT 39.830658 -85.616692 14,700 79 361 2112
2021-04-26 11:44:27 GMT 39.829628 -85.623962 14,650 79 361 2112
2021-04-26 11:44:23 GMT 39.828278 -85.633240 14,525 79 360 2048
2021-04-26 11:44:20 GMT 39.827534 -85.638489 14,350 79 359 2048
2021-04-26 11:44:16 GMT 39.826401 -85.646431 14,325 79 359 2112
2021-04-26 11:44:13 GMT 39.825027 -85.655983 14,150 79 358 2176
2021-04-26 11:44:10 GMT 39.824432 -85.660164 14,025 79 357 2176
2021-04-26 11:44:07 GMT 39.823196 -85.668701 13,925 79 356 2176
2021-04-26 11:44:02 GMT 39.821960 -85.677238 13,800 79 355 2048
2021-04-26 11:43:59 GMT 39.820770 -85.685654 13,675 79 355 1984
2021-04-26 11:43:56 GMT 39.820129 -85.689957 13,600 79 355 1984
2021-04-26 11:43:52 GMT 39.818874 -85.698730 13,450 79 353 2048
2021-04-26 11:43:46 GMT 39.817108 -85.711121 13,250 79 352 2368
2021-04-26 11:43:42 GMT 39.815758 -85.720459 13,050 79 351 2496
2021-04-26 11:43:38 GMT 39.814728 -85.727516 12,900 79 351 2752
2021-04-26 11:43:35 GMT 39.813568 -85.735413 12,725 79 352 2880
2021-04-26 11:43:30 GMT 39.812126 -85.745422 12,500 79 353 2624
2021-04-26 11:43:25 GMT 39.810822 -85.754578 12,325 79 353 2432
2021-04-26 11:43:20 GMT 39.809418 -85.764236 12,150 79 353 1984
2021-04-26 11:43:17 GMT 39.808262 -85.772217 12,025 79 352 1920
2021-04-26 11:43:14 GMT 39.807770 -85.775818 11,975 79 352 1920
2021-04-26 11:43:11 GMT 39.806442 -85.785011 11,850 79 350 1856
2021-04-26 11:43:08 GMT 39.805889 -85.788879 11,725 79 348 1856
2021-04-26 11:43:05 GMT 39.804520 -85.798210 11,650 79 347 1856
2021-04-26 11:43:00 GMT 39.803284 -85.806564 11,525 79 345 1920
2021-04-26 11:42:54 GMT 39.801605 -85.818298 11,325 79 344 2048
2021-04-26 11:42:49 GMT 39.800217 -85.827705 11,075 79 340 1984
2021-04-26 11:42:46 GMT 39.799210 -85.834808 11,025 79 339 1920
2021-04-26 11:42:43 GMT 39.798439 -85.840027 10,850 79 336 1920
2021-04-26 11:42:39 GMT 39.797195 -85.848602 10,775 79 336 1920
2021-04-26 11:42:36 GMT 39.796112 -85.856079 10,700 79 334 1792
2021-04-26 11:42:33 GMT 39.795506 -85.860046 10,650 79 334 1728
2021-04-26 11:42:28 GMT 39.793991 -85.870750 10,525 79 330 1536
2021-04-26 11:42:25 GMT 39.792900 -85.878174 10,425 79 327 1536
2021-04-26 11:42:22 GMT 39.792576 -85.880493 10,400 79 326 1600
2021-04-26 11:42:19 GMT 39.791317 -85.888916 10,250 79 323 2112
2021-04-26 11:42:16 GMT 39.790924 -85.891647 10,200 79 322 2304
2021-04-26 11:42:13 GMT 39.789734 -85.900009 10,025 79 321 2560
2021-04-26 11:42:05 GMT 39.787312 -85.916260 9,675 79 319 2304
2021-04-26 11:42:02 GMT 39.786896 -85.919312 9,625 79 319 2176
2021-04-26 11:41:57 GMT 39.785294 -85.930283 9,400 79 315 1984
2021-04-26 11:41:54 GMT 39.784660 -85.934448 9,325 79 314 2112
2021-04-26 11:41:51 GMT 39.783966 -85.939301 9,250 79 313 2176
2021-04-26 11:41:48 GMT 39.782845 -85.947083 9,100 79 311 2304
2021-04-26 11:41:45 GMT 39.781868 -85.953613 8,975 79 310 2304
2021-04-26 11:41:41 GMT 39.780945 -85.959839 8,825 79 307 2368
2021-04-26 11:41:37 GMT 39.780121 -85.965691 8,675 79 306 2368
2021-04-26 11:41:34 GMT 39.778980 -85.973267 8,475 79 305 2368
2021-04-26 11:41:31 GMT 39.778561 -85.976196 8,475 79 305 2304
2021-04-26 11:41:27 GMT 39.777493 -85.983398 8,275 79 302 2240
2021-04-26 11:41:24 GMT 39.776466 -85.990540 8,175 79 301 2304
2021-04-26 11:41:20 GMT 39.775681 -85.995842 8,075 79 299 2432
2021-04-26 11:41:15 GMT 39.774372 -86.004700 7,850 79 298 2496
2021-04-26 11:41:11 GMT 39.773067 -86.013733 7,625 79 296 2816
2021-04-26 11:41:05 GMT 39.771950 -86.021362 7,375 79 296 2880
2021-04-26 11:41:02 GMT 39.770920 -86.028206 7,175 79 295 2816
2021-04-26 11:40:59 GMT 39.770187 -86.033096 7,100 79 295 2752
2021-04-26 11:40:54 GMT 39.768879 -86.041931 6,875 78 294 2752
2021-04-26 11:40:51 GMT 39.768227 -86.046082 6,725 78 293 2624
2021-04-26 11:40:48 GMT 39.767296 -86.052246 6,600 78 293 2624
2021-04-26 11:40:45 GMT 39.766479 -86.057518 6,325 78 291 2560
2021-04-26 11:40:42 GMT 39.765572 -86.063354 6,325 79 290 2496
2021-04-26 11:40:39 GMT 39.764740 -86.069221 6,200 79 288 2496
2021-04-26 11:40:34 GMT 39.763779 -86.076027 6,025 79 287 2432
2021-04-26 11:40:29 GMT 39.762592 -86.084534 5,825 80 285 2368
2021-04-26 11:40:25 GMT 39.761581 -86.092148 5,650 80 282 2496
2021-04-26 11:40:21 GMT 39.760777 -86.097961 5,425 79 280 2560
2021-04-26 11:40:18 GMT 39.760071 -86.102837 5,375 79 280 2560
2021-04-26 11:40:13 GMT 39.758881 -86.110840 5,175 78 278 2496
2021-04-26 11:40:09 GMT 39.757614 -86.119019 4,975 78 275 2176
2021-04-26 11:40:03 GMT 39.756454 -86.126541 4,775 78 271 1920
2021-04-26 11:40:00 GMT 39.755493 -86.132874 4,700 78 268 1984
2021-04-26 11:39:57 GMT 39.754898 -86.136810 4,600 78 266 1984
2021-04-26 11:39:53 GMT 39.753983 -86.143021 4,475 79 262 1920
2021-04-26 11:39:48 GMT 39.752956 -86.150146 4,100 79 257 1600
2021-04-26 11:39:43 GMT 39.751785 -86.158424 4,200 79 251 1600
2021-04-26 11:39:37 GMT 39.750584 -86.167175 4,050 80 244 1472
2021-04-26 11:39:33 GMT 39.749790 -86.173523 3,950 80 238 1664
2021-04-26 11:39:29 GMT 39.749176 -86.178192 3,775 80 233 2304
2021-04-26 11:39:26 GMT 39.748627 -86.182434 3,775 80 233 2304
2021-04-26 11:39:21 GMT 39.747757 -86.188759 3,500 79 230 3008
2021-04-26 11:39:17 GMT 39.746613 -86.196342 3,225 78 230 2816
2021-04-26 11:39:10 GMT 39.745415 -86.203674 3,025 77 228 1664
2021-04-26 11:39:06 GMT 39.744347 -86.210083 2,950 77 223 704
2021-04-26 11:39:00 GMT 39.743229 -86.216736 2,875 78 210 896
2021-04-26 11:38:56 GMT 39.742435 -86.221680 2,750 78 202 896
2021-04-26 11:38:50 GMT 39.741302 -86.229065 2,725 79 194 1024
2021-04-26 11:38:46 GMT 39.740387 -86.235031 2,600 78 187 1600
2021-04-26 11:38:40 GMT 39.739506 -86.240479 2,475 76 182 1792
2021-04-26 11:38:35 GMT 39.738373 -86.245781 2,350 57 165 1216
2021-04-26 11:38:30 GMT 39.736851 -86.250793 2,225 64 176 1408
2021-04-26 11:38:26 GMT 39.735222 -86.254822 2,125 58 172 1344
2021-04-26 11:38:19 GMT 39.732422 -86.260590 2,000 57 164 1216
2021-04-26 11:38:16 GMT 39.731171 -86.263123 1,950 57 159 1536

Making use of Plane Finder data

You are free to use the raw flight data, aircraft information and images provided in this report for your own purposes provided the data is correctly attributed to Plane Finder. We ask that you please credit Plane Finder and link to planefinder.net in close proximity to the content.

Optionally one of the following logos (no smaller then 150x24px) can be used and must link to planefinder.net

Embedding the Plane Finder map

You are welcome to embed the Plane Finder playback map on your website to offer visitors a more interactive experience. We suggest using the following HTML code:

<iframe src="//planefinder.net/data/report/AA4842-N406YX-7700-squawk-2021-04-26/map" width="800" height="600" seamless="seamless"></iframe>

Where our data comes from

Plane Finder has a global network of data feeds and antenna radars that receive data broadcast directly from aircraft. The primary technologies used are ADS-B and MLAT. We also show feeds from the FAA and a FLARM glider feed.

Click here to find out more about the Plane Finder network.

How we collect our data